YYYY MM/DD hh:mm Temp Humid W_dir W_spd Barom T_int Light Power Temp2 P2 Snow T_mid T_base Static Precip Count Count Count
Year Date Time (F) (%) (Deg) (MPH) ("Hg) (F) /1000 (V) (F) - (") (F) (F) Crash (0.01") In Out Mosq
2026 04/27 00:00 32.8 100.2 289.3 11.8 29.90 55.0 0.0 13.01 -137.6 0 -0.1 32.6 37.8 0 2429 0 0 0 48.2 42.5 0.0
2026 04/27 00:15 32.8 100.2 286.7 12.6 29.90 54.8 0.0 13.01 -137.6 0 0.2 32.6 37.8 0 2429 0 0 0 47.8 42.3 0.0
2026 04/27 00:30 32.8 100.2 279.8 11.7 29.90 54.8 0.0 12.99 -137.6 0 -0.0 32.6 37.6 0 2429 0 0 0 47.5 42.1 0.0
2026 04/27 00:45 33.2 100.2 308.2 10.9 29.90 54.6 0.0 12.99 -137.6 0 -0.1 33.5 36.9 0 2429 0 0 0 47.1 42.0 0.0
2026 04/27 01:00 33.2 96.8 298.1 10.8 29.90 54.5 0.0 12.99 -137.6 0 -0.3 33.5 37.2 0 2429 0 0 0 46.7 41.9 0.0
2026 04/27 01:15 33.2 95.3 259.6 11.5 29.90 54.4 0.0 13.00 -137.6 0 0.1 33.5 37.1 0 2429 0 0 0 46.4 41.7 0.0
2026 04/27 01:30 34.3 101.2 266.9 8.7 29.90 54.1 0.0 12.99 -137.6 0 -0.1 33.5 37.0 0 2429 0 0 0 46.0 41.5 0.0
2026 04/27 01:45 32.8 100.2 212.2 9.3 29.89 54.1 0.0 13.00 -137.7 0 -0.3 33.5 35.2 0 2429 0 0 0 45.8 41.4 0.0
2026 04/27 02:00 33.2 100.2 243.0 8.3 29.89 53.9 0.0 12.99 -137.7 0 0.0 33.5 35.2 0 2429 0 0 0 45.5 41.3 0.0
2026 04/27 02:15 32.8 100.2 237.8 9.2 29.88 53.8 0.0 13.00 -137.7 0 0.1 33.5 36.1 0 2429 0 0 0 45.1 41.1 0.0
2026 04/27 02:30 32.8 100.2 250.4 9.3 29.88 53.7 0.0 12.98 -137.7 0 -0.3 33.5 35.7 0 2429 0 0 0 44.9 41.0 0.0
2026 04/27 02:45 33.2 100.2 249.4 9.8 29.88 53.5 0.0 13.00 -137.7 0 0.1 33.5 35.5 0 2429 0 0 0 44.5 40.8 0.0
2026 04/27 03:00 33.2 100.2 239.8 10.7 29.88 53.4 0.0 13.02 -137.7 0 0.0 33.5 35.4 0 2429 0 0 0 44.3 40.7 0.0
2026 04/27 03:15 33.0 100.2 243.0 10.6 29.88 53.3 0.0 13.00 -137.7 0 -0.2 33.5 35.1 0 2429 0 0 0 44.0 40.6 0.0
2026 04/27 03:30 32.7 100.2 242.4 9.1 29.88 53.1 0.0 12.98 -137.7 0 -0.2 33.5 35.2 0 2429 0 0 0 43.8 40.5 0.0
2026 04/27 03:45 32.4 100.2 257.9 9.8 29.88 52.9 0.0 12.99 -137.7 0 -0.2 33.5 35.2 0 2429 0 0 0 43.5 40.4 0.0
2026 04/27 04:00 32.5 100.2 252.6 10.0 29.89 52.9 0.0 12.99 -137.7 0 -0.2 33.5 34.2 0 2429 0 0 0 43.3 40.3 0.0
2026 04/27 04:15 32.4 100.2 267.1 8.0 29.88 52.7 0.0 13.01 -137.7 0 -997.0 -997.0 34.6 0 2429 0 0 0 43.1 40.2 0.0
2026 04/27 04:30 32.3 100.2 261.8 8.5 29.89 52.5 0.0 12.98 -137.7 0 -0.0 32.6 35.4 0 2429 0 0 0 42.9 40.0 0.0
2026 04/27 04:45 32.2 100.2 264.6 9.1 29.88 52.5 0.0 13.00 -137.7 0 -0.2 32.6 35.9 0 2429 0 0 0 42.6 39.9 0.0
2026 04/27 05:00 31.7 100.2 239.2 9.2 29.89 52.2 0.0 13.01 -137.7 0 -0.3 32.6 35.1 0 2429 0 0 0 42.4 39.8 0.0
2026 04/27 05:15 31.7 100.2 247.0 9.3 29.88 52.1 0.0 12.99 -137.7 0 -0.5 32.6 34.9 0 2429 0 0 0 42.2 39.7 0.0
2026 04/27 05:30 31.4 100.2 270.1 10.8 29.88 52.0 0.7 13.01 -137.7 0 -0.1 31.7 35.2 0 2429 0 0 0 42.0 39.6 0.0
2026 04/27 05:45 31.6 100.2 277.9 12.1 29.88 51.8 8.5 13.00 -137.7 0 -0.5 32.6 34.4 0 2429 0 0 0 41.7 39.5 0.0
2026 04/27 06:00 31.4 100.2 273.8 12.6 29.88 51.8 73.3 13.01 -137.7 0 -0.9 32.6 34.1 0 2429 0 0 0 41.6 39.4 0.0
2026 04/27 06:15 31.4 100.2 276.1 11.2 29.87 51.6 197.8 12.98 -137.7 0 -0.4 32.6 33.7 0 2429 0 0 0 41.3 39.3 0.0
2026 04/27 06:30 31.6 100.2 267.7 12.4 29.88 51.5 395.3 13.01 -137.7 0 -0.2 32.6 33.4 0 2429 0 0 0 41.3 39.2 0.0
2026 04/27 06:45 31.1 100.2 256.7 8.6 29.88 51.4 515.4 13.00 -137.7 0 -0.5 32.6 33.3 0 2429 0 0 0 41.2 39.2 0.0
2026 04/27 07:00 31.0 100.2 310.1 7.4 29.88 51.2 575.1 13.01 -137.7 0 -0.5 33.5 34.8 0 2429 0 0 0 41.1 39.0 0.0
2026 04/27 07:15 31.1 100.2 253.2 7.5 29.88 51.2 588.7 12.99 -137.8 0 -997.0 -997.0 36.2 0 2429 0 0 0 41.0 39.0 0.0
2026 04/27 07:30 31.3 100.2 239.7 7.3 29.89 51.0 615.9 13.01 -137.8 0 -0.6 35.3 36.6 0 2429 0 0 0 41.1 38.9 0.0
2026 04/27 07:45 31.1 100.2 270.8 9.7 29.89 51.0 637.2 12.98 -137.8 0 -1.0 37.1 37.0 0 2429 0 0 0 41.1 39.0 0.0
2026 04/27 08:00 31.7 100.2 278.6 8.8 29.89 50.8 650.8 12.98 -137.8 0 -0.9 37.1 38.4 0 2429 0 0 0 41.4 39.2 0.0
2026 04/27 08:15 31.6 100.2 291.4 10.2 29.90 50.8 670.5 12.97 -137.8 0 -997.0 -997.0 38.9 0 2429 0 0 0 41.9 39.5 0.0
2026 04/27 08:30 31.7 100.2 292.4 9.3 29.90 50.6 684.4 13.00 -137.8 0 -0.2 37.1 39.8 0 2429 0 0 0 42.3 39.7 0.0
2026 04/27 08:45 31.8 100.2 286.4 10.8 29.90 50.6 681.4 12.98 -137.8 0 -0.2 38.0 39.7 0 2429 0 0 0 42.7 40.2 0.0
2026 04/27 09:00 32.4 100.2 297.2 9.8 29.91 50.4 692.6 12.98 -137.8 0 -0.2 38.9 41.1 0 2429 0 0 0 43.3 40.7 0.0
2026 04/27 09:15 32.7 100.2 270.4 10.5 29.91 50.4 701.0 13.00 -137.8 0 -997.0 -997.0 42.4 0 2429 0 0 0 44.4 41.7 0.0
2026 04/27 09:30 32.8 100.2 294.8 7.5 29.91 50.4 647.4 12.99 -137.8 0 -997.0 -997.0 42.3 0 2429 0 0 0 45.7 42.7 0.0
2026 04/27 09:45 34.8 100.9 303.0 6.4 29.92 50.2 708.0 13.00 -137.8 0 -0.1 39.8 42.5 0 2429 0 0 0 45.9 43.0 0.0
2026 04/27 10:00 33.7 100.2 278.1 9.1 29.92 50.2 728.0 12.98 -137.8 0 -0.1 39.8 43.4 0 2429 0 0 0 47.0 43.7 0.0
2026 04/27 10:15 34.9 95.6 295.8 7.7 29.92 50.2 716.0 13.00 -137.8 0 0.2 39.8 43.5 0 2429 0 0 0 48.2 44.4 0.0
2026 04/27 10:30 34.6 89.3 311.5 11.1 29.92 50.2 732.0 12.98 -137.8 0 0.2 40.7 44.4 0 2429 0 0 0 49.5 45.3 0.0
2026 04/27 10:45 36.5 82.6 299.1 7.3 29.92 50.2 742.0 13.00 -137.8 0 -0.2 40.7 45.4 0 2429 0 0 0 50.6 46.0 0.0
2026 04/27 11:00 37.6 79.5 254.0 7.9 29.92 50.1 598.2 13.00 -137.8 0 -0.8 42.5 46.2 0 2429 0 0 0 52.0 46.7 0.0
2026 04/27 11:15 39.0 72.2 223.2 6.4 29.92 50.1 783.0 13.00 -137.8 0 0.0 42.5 47.6 0 2429 0 0 0 53.3 47.5 0.0
2026 04/27 11:30 38.8 61.2 303.6 16.0 29.93 50.1 788.0 13.00 -137.8 0 0.2 45.2 48.4 0 2429 0 0 0 54.7 48.3 0.0
2026 04/27 11:45 41.6 59.4 23.9 10.5 29.93 50.1 681.0 13.00 -137.8 0 -0.1 46.1 49.6 0 2429 0 0 0 55.9 48.6 0.0
2026 04/27 12:00 40.3 68.1 298.5 11.4 29.93 50.1 811.0 13.00 -137.8 0 0.2 46.1 50.8 0 2429 0 0 0 57.2 49.2 0.0
2026 04/27 12:15 39.8 55.0 290.0 8.2 29.93 50.2 797.0 13.00 -137.8 0 -0.4 44.3 50.5 0 2429 0 0 0 58.0 49.4 0.0
2026 04/27 12:30 40.0 46.0 286.9 13.3 29.93 50.2 789.0 13.00 -137.7 0 0.4 44.3 49.8 0 2429 0 0 0 59.0 49.6 0.0
2026 04/27 12:45 40.6 45.1 274.2 15.2 29.93 50.2 796.0 13.00 -137.8 0 -0.1 47.0 52.0 0 2429 0 0 0 59.6 49.8 0.0
2026 04/27 13:00 42.5 45.9 278.9 9.1 29.93 50.4 691.5 12.99 -137.8 0 -0.2 46.1 51.5 0 2429 0 0 0 60.9 50.1 0.0
2026 04/27 13:15 39.2 53.1 338.3 12.6 29.93 50.4 682.7 12.98 -137.8 0 -0.5 45.2 49.6 0 2429 0 0 0 61.3 50.2 0.0
2026 04/27 13:30 39.3 55.3 329.1 11.8 29.93 50.5 584.3 13.01 -137.8 0 -0.1 43.4 48.3 0 2429 0 0 0 61.3 50.0 0.0
2026 04/27 13:45 38.7 63.3 315.4 13.4 29.94 50.6 617.9 13.00 -137.8 0 0.0 42.5 48.3 0 2429 0 0 0 61.0 49.6 0.0
2026 04/27 14:00 39.0 61.7 313.1 10.2 29.94 50.8 801.0 13.00 -137.7 0 0.4 45.2 51.6 0 2429 0 0 0 60.2 49.3 0.0
2026 04/27 14:15 42.1 54.0 313.0 8.8 29.94 50.8 624.7 13.01 -137.7 0 -0.4 46.1 50.3 0 2429 0 0 0 60.4 49.2 0.0
2026 04/27 14:30 41.0 55.4 269.3 10.0 29.94 51.0 638.6 13.01 -137.7 0 -0.4 45.2 49.8 0 2429 0 0 0 60.4 48.9 0.0
2026 04/27 14:45 40.4 55.3 294.0 13.5 29.95 51.1 636.9 12.99 -137.7 0 -0.2 45.2 50.4 0 2429 0 0 0 60.4 48.8 0.0
2026 04/27 15:00 39.9 59.5 328.3 17.3 29.95 51.2 599.9 12.98 -137.7 0 -0.2 43.4 49.4 0 2429 0 0 0 60.3 48.7 0.0
2026 04/27 15:15 40.1 59.0 306.5 6.9 29.95 51.4 593.1 13.01 -137.7 0 -0.2 44.3 51.3 0 2429 0 0 0 59.9 48.6 0.0
2026 04/27 15:30 40.9 57.8 249.8 14.7 29.95 51.6 771.0 13.00 -137.7 0 0.1 45.2 51.9 0 2429 0 0 0 60.0 48.4 0.0
2026 04/27 15:45 41.6 59.5 147.1 11.4 29.96 51.7 663.0 13.00 -137.7 0 -997.0 -997.0 52.4 0 2429 0 0 0 59.7 48.3 0.0
2026 04/27 16:00 41.0 59.6 248.2 11.3 29.96 51.8 605.3 12.99 -137.7 0 -0.2 44.3 51.0 0 2429 0 0 0 59.7 48.3 0.0
2026 04/27 16:15 40.9 59.7 308.4 12.1 29.96 52.0 788.0 13.00 -137.7 0 0.2 45.2 52.6 0 2429 0 0 0 59.6 48.0 0.0
2026 04/27 16:30 41.4 54.7 288.6 17.3 29.96 52.3 767.0 12.99 -137.7 0 -0.1 46.1 55.5 0 2429 0 0 0 59.9 47.9 0.0
2026 04/27 16:45 44.5 53.7 351.4 8.9 29.96 52.2 761.0 13.01 -137.7 0 0.2 46.1 55.9 0 2429 0 0 0 60.2 47.9 0.0
2026 04/27 17:00 41.7 55.9 240.1 14.9 29.97 52.4 755.0 12.99 -137.7 0 -0.2 46.1 57.3 0 2429 0 0 0 60.5 47.9 0.0
2026 04/27 17:15 43.8 56.5 187.1 10.4 29.98 52.6 735.0 13.00 -137.7 0 -0.2 45.2 60.9 0 2429 0 0 0 61.1 47.9 0.0
2026 04/27 17:30 41.2 56.3 209.4 17.2 29.98 52.9 724.0 12.98 -137.7 0 -0.2 45.2 60.4 0 2429 0 0 0 61.4 47.9 0.0
2026 04/27 17:45 44.0 57.5 286.1 11.2 29.99 53.1 715.0 12.99 -137.6 0 -0.3 45.2 61.4 0 2429 0 0 0 61.5 47.9 0.0
2026 04/27 18:00 41.6 58.5 256.3 12.9 30.00 53.3 707.0 13.00 -137.7 0 -0.4 45.2 59.7 0 2429 0 0 0 61.7 47.7 0.0
2026 04/27 18:15 40.2 57.1 311.9 19.6 29.99 53.5 688.0 13.00 -137.7 0 -0.4 44.3 56.8 0 2429 0 0 0 61.3 47.7 0.0
2026 04/27 18:30 40.6 60.6 287.4 13.7 30.00 53.7 665.0 12.99 -137.6 0 -0.5 44.3 52.5 0 2429 0 0 0 61.2 47.5 0.0
2026 04/27 18:45 39.1 69.4 299.2 9.5 30.01 53.9 627.7 12.98 -137.6 0 -0.6 42.5 48.6 0 2429 0 0 0 61.0 47.5 0.0
2026 04/27 19:00 37.6 75.5 283.6 7.7 30.02 54.1 430.5 12.99 -137.6 0 -0.4 40.7 48.6 0 2429 0 0 0 60.6 47.2 0.0
2026 04/27 19:15 37.0 78.4 286.0 9.3 30.01 54.4 447.8 12.99 -137.6 0 -0.4 38.9 47.4 0 2429 0 0 0 59.9 47.1 0.0
2026 04/27 19:30 37.2 78.5 285.8 8.5 30.02 54.6 442.7 13.01 -137.6 0 -0.1 38.9 46.2 0 2429 0 0 0 59.0 46.9 0.0
2026 04/27 19:45 36.6 81.3 300.1 8.6 30.02 54.9 279.2 13.00 -137.6 0 -0.0 38.0 44.8 0 2429 0 0 0 58.5 46.8 0.0
2026 04/27 20:00 35.9 83.4 242.0 9.8 30.03 55.1 163.2 12.99 -137.5 0 0.0 37.1 43.8 0 2429 0 0 0 57.6 46.6 0.0
2026 04/27 20:15 35.2 85.8 285.1 12.5 30.03 55.2 43.4 13.00 -137.5 0 -0.2 36.2 42.6 0 2429 0 0 0 56.8 46.4 0.0
2026 04/27 20:30 34.9 85.6 286.3 13.1 30.03 55.4 4.8 12.99 -137.5 0 -0.1 35.3 41.6 0 2429 0 0 0 55.8 46.0 0.0
2026 04/27 20:45 34.3 92.3 233.8 6.7 30.04 55.6 0.0 12.99 -137.5 0 -0.4 34.4 40.9 0 2429 0 0 0 55.2 45.9 0.0
2026 04/27 21:00 34.0 98.6 296.3 10.8 30.04 55.6 0.0 12.99 -137.5 0 -0.1 34.4 39.9 0 2429 0 0 0 54.3 45.7 0.0
2026 04/27 21:15 33.9 100.2 284.3 11.9 30.04 55.8 0.0 13.01 -137.5 0 -0.2 33.5 39.7 0 2429 0 0 0 53.5 45.3 0.0
2026 04/27 21:30 33.4 100.2 275.3 12.1 30.05 55.9 0.0 13.00 -137.5 0 -0.4 33.5 38.9 0 2429 0 0 0 52.8 45.1 0.0
2026 04/27 21:45 33.6 100.2 264.4 11.2 30.05 55.9 0.0 13.00 -137.5 0 -0.1 33.5 38.2 0 2429 0 0 0 52.3 45.0 0.0
2026 04/27 22:00 35.9 89.0 242.6 12.2 30.05 55.9 0.0 12.99 -137.5 0 -0.3 33.5 37.8 0 2429 0 0 0 51.6 44.7 0.0
2026 04/27 22:15 34.1 85.6 248.8 13.3 30.05 55.9 0.0 12.99 -137.5 0 -0.2 32.6 37.9 0 2429 0 0 0 51.1 44.4 0.0
2026 04/27 22:30 33.9 84.4 260.6 13.2 30.06 55.9 0.0 12.99 -137.5 0 -0.2 32.6 38.1 0 2429 0 0 0 50.5 44.3 0.0
2026 04/27 22:45 33.6 86.6 286.2 13.2 30.06 55.9 0.0 13.01 -137.5 0 -0.1 32.6 38.1 0 2429 0 0 0 50.2 44.1 0.0
2026 04/27 23:00 33.2 91.6 266.3 13.4 30.06 55.8 0.0 13.01 -137.5 0 -0.2 32.6 37.2 0 2429 0 0 0 49.6 43.9 0.0
2026 04/27 23:15 33.3 96.4 245.5 12.2 30.06 55.6 0.0 12.99 -137.5 0 -0.2 32.6 36.9 0 2429 0 0 0 49.0 43.8 0.0
2026 04/27 23:30 34.5 100.2 243.8 15.3 30.06 55.6 0.0 12.99 -137.6 0 -0.1 32.6 36.2 0 2429 0 0 0 48.5 43.5 0.0
2026 04/27 23:45 33.0 100.2 245.6 13.5 30.06 55.5 0.0 13.01 -137.6 0 0.0 32.6 35.7 0 2429 0 0 0 48.2 43.3 0.0
2026 04/28 00:00 32.4 100.2 243.3 14.4 30.06 55.4 0.0 12.99 -137.6 0 -0.2 32.6 35.5 0 2429 0 0 0 47.8 43.2 0.0
2026 04/28 00:15 32.2 100.2 247.0 15.3 30.06 55.4 0.0 13.01 -137.6 0 -0.2 31.7 35.4 0 2429 0 0 0 47.8 43.2 0.0
2026 04/28 00:30 31.8 100.2 245.1 14.2 30.06 55.2 0.0 13.01 -137.6 0 -0.3 32.6 35.7 0 2429 0 0 0 47.0 42.7 0.0
2026 04/28 00:45 32.9 100.9 235.7 13.7 30.06 55.2 0.0 13.01 -137.6 0 -0.2 32.6 35.7 0 2429 0 0 0 46.9 42.7 0.0
2026 04/28 01:00 31.6 100.2 237.3 15.8 30.06 55.0 0.0 13.01 -137.6 0 -0.3 32.6 35.9 0 2429 0 0 0 46.5 42.5 0.0
2026 04/28 01:15 31.4 100.2 228.7 15.3 30.06 55.0 0.0 13.01 -137.6 0 -0.0 31.7 35.4 0 2429 0 0 0 46.2 42.4 0.0
2026 04/28 01:30 31.4 100.2 238.1 16.1 30.05 54.8 0.0 13.01 -137.6 0 -0.1 31.7 35.7 0 2429 0 0 0 46.0 42.2 0.0
2026 04/28 01:45 31.6 100.2 234.9 15.2 30.06 54.8 0.0 13.01 -137.6 0 -0.2 32.6 36.1 0 2429 0 0 0 45.8 42.2 0.0
2026 04/28 02:00 31.2 100.2 230.8 16.1 30.05 54.6 0.0 12.99 -137.6 0 -0.1 32.6 36.8 0 2429 0 0 0 45.7 42.1 0.0
2026 04/28 02:15 31.1 100.2 237.0 15.2 30.05 54.5 0.0 12.99 -137.6 0 -0.1 32.6 37.6 0 2429 0 0 0 45.3 42.0 0.0
2026 04/28 02:30 31.1 100.2 234.5 15.8 30.04 54.4 0.0 13.00 -137.6 0 -0.2 32.6 37.5 0 2429 0 0 0 45.1 42.0 0.0
2026 04/28 02:45 31.1 100.2 232.8 16.2 30.04 54.1 0.0 13.00 -137.6 0 -0.1 32.6 37.2 0 2429 0 0 0 45.0 41.9 0.0
2026 04/28 03:00 31.1 100.2 229.7 15.1 30.04 54.1 0.0 13.01 -137.6 0 -0.2 32.6 37.0 0 2429 0 0 0 44.9 41.7 0.0
2026 04/28 03:15 31.0 100.2 231.5 15.8 30.04 53.9 0.0 12.98 -137.6 0 -0.2 32.6 37.5 0 2429 0 0 0 44.7 41.7 0.0
2026 04/28 03:30 31.0 100.2 239.7 16.5 30.04 53.8 0.0 12.98 -137.7 0 -0.1 32.6 37.9 0 2429 0 0 0 44.5 41.6 0.0
2026 04/28 03:45 30.8 100.2 241.3 14.7 30.04 53.7 0.0 13.00 -137.7 0 -0.2 32.6 37.8 0 2429 0 0 0 44.4 41.5 0.0
2026 04/28 04:00 30.8 100.2 253.3 15.9 30.04 53.5 0.0 13.01 -137.7 0 -0.1 32.6 37.8 0 2429 0 0 0 44.3 41.5 0.0
2026 04/28 04:15 30.8 100.2 242.9 14.8 30.04 53.4 0.0 13.02 -137.7 0 0.0 31.7 36.8 0 2429 0 0 0 44.1 41.4 0.0
2026 04/28 04:30 30.6 100.2 241.3 16.1 30.03 53.3 0.0 13.01 -137.7 0 0.1 31.7 36.6 0 2429 0 0 0 44.0 41.4 0.0
2026 04/28 04:45 31.0 100.2 250.6 14.0 30.04 53.1 0.0 13.01 -137.7 0 0.1 31.7 36.8 0 2429 0 0 0 43.9 41.3 0.0
2026 04/28 05:00 30.5 100.2 253.5 14.9 30.03 53.0 0.0 13.00 -137.7 0 -0.0 31.7 36.8 0 2429 0 0 0 43.8 41.2 0.0
2026 04/28 05:15 30.2 100.2 241.8 14.7 30.04 52.9 0.0 12.98 -137.7 0 0.0 31.7 37.6 0 2429 0 0 0 43.7 41.2 0.0
2026 04/28 05:30 30.1 100.2 238.4 14.1 30.04 52.7 0.0 13.01 -137.7 0 0.0 31.7 36.9 0 2429 0 0 0 43.7 41.1 0.0
2026 04/28 05:45 30.0 100.2 239.3 16.8 30.03 52.5 4.8 13.00 -137.7 0 -0.0 31.7 37.3 0 2429 0 0 0 43.5 41.1 0.0
2026 04/28 06:00 30.4 100.2 242.4 12.5 30.03 52.5 38.3 12.98 -137.7 0 -0.1 31.7 37.5 0 2429 0 0 0 43.4 41.0 0.0
2026 04/28 06:15 30.2 100.2 279.1 12.9 30.03 52.2 109.9 13.00 -137.7 0 -0.2 31.7 37.1 0 2429 0 0 0 43.3 41.0 0.0
2026 04/28 06:30 30.0 100.2 233.2 13.7 30.04 52.2 211.4 12.99 -137.7 0 -0.2 31.7 37.8 0 2429 0 0 0 43.3 41.0 0.0
2026 04/28 06:45 29.9 100.2 245.8 14.8 30.04 52.0 278.6 13.00 -137.7 0 -0.2 31.7 37.3 0 2429 0 0 0 43.2 40.8 0.0
2026 04/28 07:00 29.9 100.1 238.1 14.7 30.03 51.8 345.0 12.99 -137.7 0 -0.1 31.7 37.6 0 2429 0 0 0 43.1 40.8 0.0
2026 04/28 07:15 29.9 100.2 241.9 16.2 30.04 51.8 424.4 13.00 -137.7 0 -0.2 32.6 38.4 0 2429 0 0 0 43.1 40.7 0.0
2026 04/28 07:30 29.9 100.2 239.3 14.8 30.04 51.6 495.7 12.98 -137.7 0 -0.2 32.6 38.9 0 2429 0 0 0 43.1 40.7 0.0
2026 04/28 07:45 30.1 100.2 233.3 14.7 30.04 51.5 515.4 12.98 -137.7 0 -0.2 32.6 38.8 0 2429 0 0 0 43.0 40.7 0.0
2026 04/28 08:00 30.2 100.2 247.3 12.7 30.05 51.4 554.7 13.00 -137.7 0 -0.6 33.5 38.7 0 2429 0 0 0 43.1 40.6 0.0
2026 04/28 08:15 30.1 100.2 268.1 11.8 30.05 51.3 513.7 12.99 -137.7 0 -0.3 33.5 39.8 0 2429 0 0 0 43.3 40.7 0.0
2026 04/28 08:30 30.6 100.2 239.8 11.8 30.07 51.2 578.8 13.00 -137.7 0 -0.5 33.5 39.9 0 2429 0 0 0 43.1 40.7 0.0
2026 04/28 08:45 30.6 100.2 256.1 10.5 30.06 51.1 628.1 12.98 -995 0 -0.1 33.5 40.0 0 2429 0 0 0 43.3 40.7 0.0
2026 04/28 09:00 30.6 100.2 292.0 11.5 30.06 51.0 589.4 13.00 -137.7 0 -0.3 34.4 41.2 0 2429 0 0 0 43.5 40.7 0.0
2026 04/28 09:15 31.2 100.2 246.2 7.1 30.07 51.0 623.0 12.99 -137.7 0 -0.5 36.2 41.5 0 2429 0 0 0 44.0 41.0 0.0
2026 04/28 09:30 31.4 100.2 275.0 8.2 30.07 50.8 697.9 13.00 -137.8 0 -0.4 37.1 42.2 0 2429 0 0 0 44.4 41.3 0.0
2026 04/28 09:45 31.9 100.2 223.5 6.0 30.07 50.8 625.0 12.99 -137.8 0 -0.2 38.9 43.1 0 2429 0 0 0 45.1 41.9 0.0
2026 04/28 10:00 32.2 100.2 245.4 12.1 30.07 50.7 735.0 12.98 -137.7 0 -0.2 39.8 44.8 0 2429 0 0 0 46.1 42.9 0.0
2026 04/28 10:15 32.7 100.2 231.9 12.8 30.07 50.6 701.0 13.00 -137.7 0 -0.1 39.8 45.2 0 2429 0 0 0 47.2 43.7 0.0
2026 04/28 10:30 33.2 100.2 246.9 11.2 30.07 50.6 736.0 13.00 -137.8 0 -0.5 40.7 45.4 0 2429 0 0 0 48.4 44.5 0.0
2026 04/28 10:45 34.8 100.2 259.2 8.9 30.07 50.6 736.0 12.99 -137.7 0 -0.5 41.6 47.5 0 2429 0 0 0 49.3 45.2 0.0
2026 04/28 11:00 35.3 100.2 264.4 12.2 30.07 50.5 742.0 12.99 -137.8 0 -0.2 42.5 47.9 0 2429 0 0 0 50.6 46.2 0.0
2026 04/28 11:15 35.4 81.3 278.0 11.9 30.08 50.4 736.0 12.98 -137.7 0 -0.1 42.5 48.7 0 2429 0 0 0 52.0 47.0 0.0
2026 04/28 11:30 34.5 100.2 258.8 14.2 30.08 50.4 768.0 13.01 -137.7 0 -0.7 43.4 49.3 0 2429 0 0 0 53.1 47.7 0.0
2026 04/28 11:45 38.3 101.0 237.9 9.2 30.09 50.4 766.0 12.99 -137.7 0 -0.6 44.3 51.1 0 2429 0 0 0 53.9 48.2 0.0
2026 04/28 12:00 37.9 100.2 204.8 8.7 30.08 50.5 744.0 12.99 -137.7 0 -0.5 44.3 52.9 0 2429 0 0 0 55.0 48.6 0.0
2026 04/28 12:15 38.2 100.2 237.3 10.6 30.08 50.6 737.0 12.99 -137.8 0 -0.8 44.3 51.5 0 2429 0 0 0 55.8 49.0 0.0
2026 04/28 12:30 37.3 100.2 243.3 13.9 30.08 50.6 749.0 13.00 -137.7 0 0.0 45.2 52.5 0 2429 0 0 0 56.5 49.3 0.0
2026 04/28 12:45 37.1 100.2 246.4 17.1 30.08 50.6 733.0 13.00 -137.8 0 -0.4 45.2 52.8 0 2429 0 0 0 56.9 49.4 0.0
2026 04/28 13:00 38.8 100.2 269.8 12.5 30.08 50.7 746.0 13.01 -137.7 0 -0.2 47.0 53.3 0 2429 0 0 0 57.6 49.5 0.0
2026 04/28 13:15 38.8 100.2 62.6 9.8 30.09 50.8 754.0 13.02 -137.7 0 -0.6 46.1 53.7 0 2429 0 0 0 58.2 50.0 0.0
2026 04/28 13:30 41.2 100.2 282.3 3.6 30.09 50.8 761.0 12.99 -137.7 0 -0.8 48.8 54.0 0 2429 0 0 0 59.0 50.3 0.0
2026 04/28 13:45 42.7 59.4 276.6 12.8 30.08 51.0 748.0 12.98 -137.7 0 0.2 48.8 55.1 0 2429 0 0 0 59.5 50.5 0.0
2026 04/28 14:00 43.7 53.1 255.8 13.2 30.09 51.2 742.0 12.98 -137.7 0 -0.8 48.8 56.0 0 2429 0 0 0 60.0 51.0 0.0
2026 04/28 14:15 43.3 53.8 234.5 15.4 30.08 51.2 775.0 13.00 -137.7 0 -0.3 50.6 55.9 0 2429 0 0 0 60.5 51.2 0.0
2026 04/28 14:30 43.3 49.5 289.1 19.9 30.09 51.4 784.0 13.00 -137.7 0 -0.7 49.7 56.4 0 2429 0 0 0 61.0 51.4 0.0
2026 04/28 14:45 44.3 49.5 228.2 13.2 30.10 51.5 708.0 12.99 -137.7 0 -0.4 49.7 56.9 0 2429 0 0 0 61.1 51.6 0.0
2026 04/28 15:00 43.5 55.1 290.1 10.5 30.09 51.6 690.1 13.01 -137.7 0 0.1 47.9 55.7 0 2429 0 0 0 61.2 51.5 0.0
2026 04/28 15:15 43.5 58.0 315.0 13.1 30.09 51.8 654.5 12.99 -137.7 0 -0.5 47.0 54.2 0 2429 0 0 0 61.2 51.3 0.0
2026 04/28 15:30 42.8 54.2 225.4 14.7 30.10 52.0 700.0 13.00 -137.7 0 -1.0 47.9 56.2 0 2429 0 0 0 61.0 51.2 0.0
2026 04/28 15:45 42.8 56.5 236.7 13.7 30.09 52.2 677.9 12.98 -137.7 0 -0.4 47.9 56.1 0 2429 0 0 0 61.1 51.0 0.0
2026 04/28 16:00 43.8 60.5 257.9 11.3 30.09 52.4 689.4 12.98 -137.7 0 -0.4 47.9 55.6 0 2429 0 0 0 61.1 50.9 0.0
2026 04/28 16:15 43.3 65.1 218.2 10.5 30.09 52.6 626.0 13.01 -137.7 0 -0.3 47.0 56.1 0 2429 0 0 0 61.2 50.7 0.0
2026 04/28 16:30 43.8 64.0 277.8 16.0 30.08 52.9 604.2 13.00 -137.7 0 -0.3 47.9 60.2 0 2429 0 0 0 61.4 50.9 0.0
2026 04/28 16:45 45.1 60.3 197.7 12.6 30.09 53.1 748.0 13.01 -137.7 0 -0.2 48.8 60.3 0 2429 0 0 0 61.8 50.9 0.0
2026 04/28 17:00 46.8 58.2 242.2 8.7 30.09 53.3 739.0 13.00 -137.7 0 -0.2 48.8 59.7 0 2429 0 0 0 62.5 51.0 0.0
2026 04/28 17:15 44.9 55.2 234.1 15.7 30.09 53.5 747.0 13.00 -137.6 0 0.2 51.5 66.0 0 2429 0 0 0 63.2 51.1 0.0
2026 04/28 17:30 43.5 54.8 288.8 16.6 30.10 53.7 659.2 13.00 -137.6 0 -0.3 47.0 60.0 0 2429 0 0 0 63.6 51.2 0.0
2026 04/28 17:45 43.2 67.1 267.3 13.7 30.10 53.9 630.7 12.99 -137.6 0 -0.8 47.9 59.5 0 2429 0 0 0 63.7 51.2 0.0
2026 04/28 18:00 42.0 66.0 224.4 17.3 30.10 54.1 602.2 13.00 -137.6 0 -0.4 46.1 56.5 0 2429 0 0 0 63.9 50.9 0.0
2026 04/28 18:15 41.5 74.8 3.5 11.1 30.11 54.4 542.2 12.99 -137.6 0 -0.4 44.3 53.4 0 2429 0 0 0 63.6 50.6 0.0
2026 04/28 18:30 40.7 77.2 250.2 11.5 30.11 54.8 621.5 12.99 -137.6 0 -0.4 45.2 53.3 0 2429 0 0 0 63.1 50.3 0.0
2026 04/28 18:45 40.7 82.1 309.9 8.7 30.11 55.0 499.1 13.01 -137.6 0 -0.5 43.4 50.5 0 2429 0 0 0 62.8 50.2 0.0
2026 04/28 19:00 38.8 88.3 303.2 14.1 30.11 55.2 425.8 13.00 -137.5 0 -0.2 41.6 48.8 0 2429 0 0 0 62.3 50.0 0.0
2026 04/28 19:15 37.9 92.1 260.6 8.9 30.11 55.4 437.3 13.01 -137.5 0 -0.3 40.7 48.0 0 2429 0 0 0 61.7 49.7 0.0
2026 04/28 19:30 38.2 90.3 305.6 13.9 30.12 55.6 390.5 13.01 -137.5 0 -0.3 39.8 47.2 0 2429 0 0 0 60.9 49.4 0.0
2026 04/28 19:45 36.7 92.1 295.2 17.1 30.12 55.9 254.8 12.99 -137.5 0 -0.2 38.9 46.0 0 2429 0 0 0 60.4 49.2 0.0
2026 04/28 20:00 36.0 96.0 277.8 14.9 30.12 56.1 125.5 13.00 -137.5 0 -0.2 38.0 44.4 0 2429 0 0 0 59.5 48.9 0.0
2026 04/28 20:15 34.9 100.2 266.5 12.8 30.13 56.3 40.7 13.01 -137.3 0 -0.2 37.1 43.2 0 2429 0 0 0 58.6 48.6 0.0
2026 04/28 20:30 34.5 100.2 235.7 13.7 30.13 56.5 4.8 13.01 -137.3 0 -0.5 36.2 42.3 0 2429 0 0 0 57.8 48.3 0.0
2026 04/28 20:45 34.1 100.2 269.4 19.1 30.13 56.5 0.0 13.00 -137.3 0 -0.4 35.3 41.6 0 2429 0 0 0 57.2 48.2 0.0
2026 04/28 21:00 33.6 100.2 286.8 15.2 30.14 56.7 0.0 12.99 -137.3 0 -0.4 35.3 41.1 0 2429 0 0 0 56.4 47.8 0.0
2026 04/28 21:15 33.3 100.2 275.9 12.8 30.14 56.7 0.0 12.99 -137.3 0 -0.4 34.4 40.5 0 2429 0 0 0 55.6 47.6 0.0
2026 04/28 21:30 33.2 100.2 270.7 14.7 30.14 56.9 0.0 13.00 -137.3 0 -0.1 33.5 39.5 0 2429 0 0 0 54.8 47.2 0.0
2026 04/28 21:45 32.8 100.2 278.1 15.8 30.15 56.9 0.0 13.00 -137.3 0 0.0 33.5 39.7 0 2429 0 0 0 54.3 47.1 0.0
2026 04/28 22:00 32.7 100.2 274.6 17.2 30.14 56.9 0.0 13.01 -137.3 0 -0.1 33.5 38.9 0 2429 0 0 0 53.7 46.8 0.0
2026 04/28 22:15 32.4 100.2 283.7 12.9 30.15 56.9 0.0 12.99 -137.3 0 -0.4 33.5 39.0 0 2429 0 0 0 53.1 46.6 0.0
2026 04/28 22:30 32.4 100.2 270.1 14.5 30.16 56.9 0.0 13.01 -137.3 0 -0.3 33.5 38.9 0 2429 0 0 0 52.5 46.4 0.0
2026 04/28 22:45 32.4 100.2 259.7 13.7 30.15 56.9 0.0 13.01 -137.3 0 -0.2 33.5 39.0 0 2429 0 0 0 52.2 46.2 0.0
2026 04/28 23:00 32.7 100.2 245.7 15.9 30.14 56.7 0.0 12.99 -137.5 0 -0.2 32.6 38.5 0 2429 0 0 0 51.7 45.9 0.0
2026 04/28 23:15 32.7 100.2 269.2 16.7 30.14 56.7 0.0 13.01 -137.3 0 -0.2 32.6 37.9 0 2429 0 0 0 51.2 45.8 0.0
2026 04/28 23:30 32.5 100.2 234.7 14.0 30.14 56.7 0.0 13.01 -137.5 0 -0.2 32.6 37.6 0 2429 0 0 0 50.7 45.6 0.0
2026 04/28 23:45 32.7 100.2 256.0 14.0 30.14 56.5 0.0 13.01 -137.5 0 -0.2 32.6 37.2 0 2429 0 0 0 50.3 45.3 0.0
2026 04/29 00:00 32.8 100.2 234.2 12.4 30.14 56.5 0.0 12.99 -137.5 0 -0.2 32.6 36.2 0 2429 0 0 0 49.7 45.1 0.0
2026 04/29 00:15 32.5 100.2 231.6 16.4 30.14 56.3 0.0 13.01 -137.5 0 -0.2 32.6 35.5 0 2429 0 0 0 49.7 45.1 0.0
2026 04/29 00:30 32.5 100.2 229.4 16.5 30.14 56.3 0.0 12.99 -137.5 0 -0.5 32.6 35.5 0 2429 0 0 0 48.9 44.8 0.0
2026 04/29 00:45 32.3 100.2 238.3 13.2 30.14 56.1 0.0 12.99 -137.5 0 -0.4 32.6 35.2 0 2429 0 0 0 48.9 44.8 0.0
2026 04/29 01:00 32.4 100.2 245.2 13.1 30.14 56.1 0.0 13.01 -137.5 0 -0.3 31.7 34.2 0 2429 0 0 0 48.4 44.4 0.0
2026 04/29 01:15 32.4 100.2 233.1 13.3 30.14 55.9 0.0 13.01 -137.5 0 -0.5 31.7 34.2 0 2429 0 0 0 48.0 44.1 0.0
2026 04/29 01:30 32.5 100.2 237.4 12.2 30.13 55.8 0.0 12.99 -137.5 0 -0.2 31.7 34.3 0 2429 0 0 0 47.6 44.0 0.0
2026 04/29 01:45 32.4 100.2 240.6 12.8 30.13 55.6 0.0 12.99 -137.5 0 0.0 30.8 34.0 0 2429 0 0 0 47.2 43.9 0.0
2026 04/29 02:00 32.3 100.2 264.0 15.4 30.13 55.6 0.0 13.00 -137.5 0 -0.1 30.8 33.0 0 2429 0 0 0 46.9 43.7 0.0
2026 04/29 02:15 32.1 100.2 239.0 13.8 30.12 55.4 0.0 12.99 -137.6 0 -0.5 30.8 33.0 0 2429 0 0 0 46.6 43.4 0.0
2026 04/29 02:30 31.9 100.2 255.4 12.7 30.12 55.2 0.0 12.99 -137.6 0 -0.1 30.8 33.4 0 2429 0 0 0 46.1 43.3 0.0
2026 04/29 02:45 32.2 100.2 246.4 12.2 30.12 55.2 0.0 12.99 -137.6 0 -997.0 -997.0 33.3 0 2429 0 0 0 45.9 43.2 0.0
2026 04/29 03:00 32.1 100.2 241.6 9.8 30.11 55.0 0.0 12.99 -137.6 0 -0.3 31.7 33.7 0 2429 0 0 0 45.5 43.0 0.0
2026 04/29 03:15 31.9 100.2 271.0 14.1 30.11 54.8 0.0 12.99 -137.6 0 -0.0 31.7 34.0 0 2429 0 0 0 45.1 42.7 0.0
2026 04/29 03:30 31.9 100.2 253.1 12.2 30.11 54.6 0.0 13.00 -137.6 0 -0.5 31.7 34.1 0 2429 0 0 0 44.8 42.6 0.0
2026 04/29 03:45 31.9 100.2 269.1 12.7 30.11 54.6 0.0 13.00 -137.6 0 -0.4 31.7 34.3 0 2429 0 0 0 44.4 42.4 0.0
2026 04/29 04:00 31.6 100.2 270.6 9.3 30.11 54.4 0.0 13.01 -137.6 0 -1.0 30.8 34.4 0 2429 0 0 0 44.1 42.3 0.0
2026 04/29 04:15 31.7 100.2 255.3 9.4 30.11 54.1 0.0 12.99 -137.6 0 -0.9 30.8 33.1 0 2429 0 0 0 44.0 42.2 0.0
2026 04/29 04:30 32.2 100.2 101.5 8.6 30.11 54.1 0.0 12.99 -137.6 0 -0.9 31.7 32.1 0 2429 0 0 0 43.5 42.0 0.0
2026 04/29 04:45 33.2 100.9 239.2 10.1 30.11 53.9 0.0 12.99 -137.6 0 -1.0 31.7 31.6 0 2429 0 0 0 43.2 41.9 0.0
2026 04/29 05:00 31.4 100.2 232.3 8.2 30.10 53.7 0.0 13.00 -137.6 0 -0.7 31.7 31.1 0 2429 0 0 0 42.9 41.6 0.0
2026 04/29 05:15 31.3 100.2 233.2 7.8 30.10 53.5 0.0 13.00 -137.7 0 -0.4 31.7 31.4 0 2429 0 0 0 42.6 41.5 0.0
2026 04/29 05:30 31.6 100.2 235.3 5.9 30.10 53.4 0.7 12.99 -137.7 0 -0.5 31.7 31.1 0 2429 0 0 0 42.3 41.4 0.0
2026 04/29 05:45 31.2 100.2 259.1 6.1 30.10 53.3 12.2 13.00 -137.7 0 -0.4 30.8 33.2 0 2429 0 0 0 42.2 41.3 0.0
2026 04/29 06:00 31.6 73.3 279.6 7.2 30.10 53.1 63.8 13.00 -137.7 0 -1.0 30.8 32.6 0 2429 0 0 0 41.9 41.1 0.0
2026 04/29 06:15 31.4 88.2 278.4 7.8 30.10 52.9 205.3 12.99 -137.7 0 -0.9 31.7 31.8 0 2429 0 0 0 41.5 41.0 0.0
2026 04/29 06:30 33.5 26.4 305.4 3.5 30.10 52.7 310.8 13.01 -137.7 0 -0.3 31.7 31.3 0 2429 0 0 0 41.3 40.7 0.0
2026 04/29 06:45 33.3 53.0 248.3 0.2 30.10 52.7 375.6 13.00 -137.7 0 -1.1 31.7 31.2 0 2429 0 0 0 41.2 40.7 0.0
2026 04/29 07:00 33.4 45.1 307.1 1.5 30.10 52.4 415.6 12.99 -137.7 0 0.1 32.6 31.4 0 2429 0 0 0 41.0 40.5 0.0
2026 04/29 07:15 35.4 46.4 16.2 0.6 30.11 52.2 439.4 12.98 -137.7 0 -997.0 -997.0 32.5 0 2429 0 0 0 40.8 40.4 0.0
2026 04/29 07:30 34.5 60.0 118.0 3.2 30.11 52.0 457.7 12.99 -137.7 0 -0.4 36.2 33.5 0 2429 0 0 0 40.8 40.3 0.0
2026 04/29 07:45 36.2 43.0 129.5 2.1 30.10 51.8 482.5 13.00 -137.7 0 -1.3 38.0 34.9 0 2429 0 0 0 41.1 40.3 0.0
2026 04/29 08:00 36.0 52.6 146.7 3.8 30.10 51.7 507.9 12.99 -137.7 0 -1.2 38.9 37.0 0 2429 0 0 0 41.5 40.4 0.0
2026 04/29 08:15 36.5 62.2 82.3 5.3 30.10 51.6 530.3 13.02 -137.7 0 -0.6 38.9 38.4 0 2429 0 0 0 42.0 40.6 0.0
2026 04/29 08:30 36.6 61.3 149.5 4.5 30.10 51.4 554.8 13.02 -137.7 0 -0.2 40.7 39.8 0 2429 0 0 0 42.6 41.2 0.0
2026 04/29 08:45 36.5 69.8 75.9 9.5 30.10 51.2 583.9 12.98 -137.7 0 -0.5 43.4 40.8 0 2429 0 0 0 43.1 41.6 0.0
2026 04/29 09:00 38.7 69.4 86.4 12.7 30.10 51.1 607.7 12.98 -137.7 0 -0.2 41.6 41.7 0 2429 0 0 0 43.9 42.5 0.0
2026 04/29 09:15 36.2 69.3 90.9 12.1 30.10 51.0 627.7 13.00 -137.7 0 -0.4 44.3 42.5 0 2429 0 0 0 44.7 43.3 0.0
2026 04/29 09:30 37.0 62.5 98.0 14.7 30.09 50.8 646.0 13.00 -137.7 0 -0.2 42.5 43.4 0 2429 0 0 0 45.6 44.2 0.0
2026 04/29 09:45 37.7 61.3 84.3 15.9 30.09 50.8 659.6 13.01 -137.7 0 -0.4 43.4 44.1 0 2429 0 0 0 46.4 45.0 0.0
2026 04/29 10:00 37.2 58.7 97.5 18.8 30.10 50.7 673.9 13.00 -137.7 0 -0.2 42.5 44.8 0 2429 0 0 0 47.4 45.9 0.0
2026 04/29 10:15 37.8 48.9 98.6 18.8 30.10 50.6 688.1 12.98 -137.7 0 0.0 43.4 45.7 0 2429 0 0 0 48.6 47.1 0.0
2026 04/29 10:30 38.2 50.0 95.6 18.2 30.10 50.6 698.7 13.00 -137.7 0 -0.5 43.4 46.5 0 2429 0 0 0 49.7 48.2 0.0
2026 04/29 10:45 38.7 49.6 84.0 16.6 30.10 50.6 706.0 12.99 -137.7 0 0.3 45.2 47.5 0 2429 0 0 0 50.6 48.7 0.0
2026 04/29 11:00 39.8 50.6 86.2 20.8 30.10 50.6 716.0 13.00 -137.7 0 0.1 46.1 48.5 0 2429 0 0 0 51.9 49.6 0.0
2026 04/29 11:15 40.8 52.9 103.1 16.2 30.10 50.6 726.0 12.99 -137.7 0 0.4 45.2 49.6 0 2429 0 0 0 53.1 50.5 0.0
2026 04/29 11:30 40.5 52.6 117.4 14.8 30.11 50.6 732.0 13.00 -137.7 0 0.3 46.1 49.9 0 2429 0 0 0 54.3 51.0 0.0
2026 04/29 11:45 40.7 50.7 74.0 20.4 30.11 50.6 736.0 12.98 -137.7 0 0.1 47.9 51.0 0 2429 0 0 0 55.4 51.6 0.0
2026 04/29 12:00 41.4 48.4 57.4 16.9 30.11 50.7 737.0 13.00 -137.7 0 0.4 48.8 51.9 0 2429 0 0 0 56.6 52.4 0.0
2026 04/29 12:15 42.3 51.3 76.6 16.5 30.11 50.8 737.0 12.99 -137.7 0 -997.0 -997.0 53.2 0 2429 0 0 0 57.7 53.3 0.0
2026 04/29 12:30 43.3 55.7 51.5 8.2 30.11 50.8 736.0 13.00 -137.7 0 -0.2 47.9 53.4 0 2429 0 0 0 58.5 53.9 0.0
2026 04/29 12:45 42.8 55.0 61.4 12.5 30.12 50.8 736.0 13.00 -137.7 0 -0.2 48.8 55.0 0 2429 0 0 0 59.2 54.3 0.0
2026 04/29 13:00 44.0 52.7 131.3 13.2 30.12 51.0 731.0 12.98 -137.7 0 -1.1 50.6 55.0 0 2429 0 0 0 60.0 54.7 0.0
2026 04/29 13:15 44.4 53.8 79.1 18.1 30.11 51.0 724.0 13.01 -137.7 0 -0.3 51.5 56.4 0 2429 0 0 0 60.9 55.2 0.0
2026 04/29 13:30 44.5 46.1 74.4 12.7 30.12 51.2 719.0 13.01 -137.7 0 0.3 52.4 56.9 0 2429 0 0 0 61.5 55.6 0.0
2026 04/29 13:45 45.3 45.3 90.9 18.2 30.12 51.3 725.0 13.00 -137.7 0 -0.7 52.4 58.5 0 2429 0 0 0 62.0 55.7 0.0
2026 04/29 14:00 45.4 44.4 79.8 19.9 30.12 51.4 736.0 13.01 -137.7 0 -0.6 53.3 58.7 0 2429 0 0 0 62.5 55.9 0.0
2026 04/29 14:15 45.7 40.8 69.8 16.2 30.12 51.6 745.0 12.99 -137.7 0 -997.0 -997.0 60.0 0 2429 0 0 0 62.9 55.9 0.0
2026 04/29 14:30 47.0 41.3 59.0 14.4 30.13 51.7 751.0 12.98 -137.7 0 -0.4 54.2 59.7 0 2429 0 0 0 63.1 56.0 0.0
2026 04/29 14:45 46.8 39.3 122.0 20.5 30.13 51.8 753.0 12.99 -137.7 0 -0.5 54.2 61.8 0 2429 0 0 0 63.3 55.8 0.0
2026 04/29 15:00 47.0 39.6 68.4 22.4 30.13 52.0 751.0 12.99 -137.7 0 -0.4 54.2 61.9 0 2429 0 0 0 63.5 55.8 0.0
2026 04/29 15:15 47.9 39.3 84.6 16.9 30.13 52.2 745.0 12.99 -137.7 0 -997.0 -997.0 62.4 0 2429 0 0 0 63.6 55.6 0.0
2026 04/29 15:30 47.8 40.6 88.7 15.4 30.13 52.4 742.0 12.99 -137.7 0 -0.7 55.1 63.3 0 2429 0 0 0 63.6 55.2 0.0
2026 04/29 15:45 47.9 37.3 76.9 21.1 30.13 52.6 739.0 13.00 -137.7 0 -0.1 55.1 64.1 0 2429 0 0 0 63.6 55.0 0.0
2026 04/29 16:00 48.4 38.2 117.3 13.5 30.13 52.9 735.0 13.00 -137.6 0 -0.2 55.1 64.8 0 2429 0 0 0 63.7 54.8 0.0
2026 04/29 16:15 48.7 37.9 78.5 14.0 30.13 53.1 727.0 13.00 -137.6 0 -997.0 -997.0 65.5 0 2429 0 0 0 64.2 54.6 0.0
2026 04/29 16:30 48.9 37.8 100.8 19.2 30.13 53.4 721.0 12.98 -137.6 0 0.0 54.2 65.9 0 2429 0 0 0 64.6 54.2 0.0
2026 04/29 16:45 48.5 38.0 74.1 12.9 30.14 53.7 712.0 13.00 -137.6 0 -0.2 54.2 67.6 0 2429 0 0 0 64.9 54.1 0.0
2026 04/29 17:00 48.5 37.3 83.4 18.4 30.14 53.9 699.2 13.01 -137.6 0 -0.1 54.2 69.4 0 2429 0 0 0 65.4 53.9 0.0
2026 04/29 17:15 48.7 37.8 45.1 14.8 30.14 54.2 687.4 13.01 -137.6 0 -997.0 -997.0 70.1 0 2429 0 0 0 65.8 53.5 0.0
2026 04/29 17:30 48.3 37.0 68.4 21.4 30.15 54.6 675.5 13.00 -137.6 0 -0.2 53.3 71.4 0 2429 0 0 0 66.0 53.5 0.0
2026 04/29 17:45 48.5 36.5 71.6 21.6 30.15 55.0 668.4 13.01 -137.6 0 -0.2 53.3 72.7 0 2429 0 0 0 66.4 53.3 0.0
2026 04/29 18:00 48.3 37.4 78.5 17.6 30.16 55.2 650.7 12.99 -137.5 0 -0.2 53.3 73.5 0 2429 0 0 0 66.3 53.1 0.0
2026 04/29 18:15 47.9 35.0 57.4 23.4 30.16 55.6 635.5 13.01 -137.5 0 -997.0 -997.0 68.8 0 2429 0 0 0 66.0 52.9 0.0
2026 04/29 18:30 47.8 35.8 70.7 23.3 30.16 55.9 605.6 13.01 -137.5 0 -0.4 53.3 65.9 0 2429 0 0 0 65.9 52.7 0.0
2026 04/29 18:45 47.6 39.3 63.5 24.2 30.17 56.3 561.2 12.99 -137.3 0 -0.7 52.4 59.1 0 2429 0 0 0 65.7 52.4 0.0
2026 04/29 19:00 47.2 42.7 70.3 21.6 30.17 56.7 490.2 12.99 -137.3 0 -0.4 50.6 56.6 0 2429 0 0 0 65.4 52.3 0.0
2026 04/29 19:15 46.4 49.2 69.3 21.2 30.17 57.1 476.7 12.99 -137.3 0 -997.0 -997.0 54.4 0 2429 0 0 0 64.8 52.0 0.0
2026 04/29 19:30 45.9 51.6 64.4 22.8 30.18 57.4 433.6 12.99 -137.2 0 -0.4 47.9 53.8 0 2429 0 0 0 64.2 51.7 0.0
2026 04/29 19:45 45.4 52.4 67.1 23.9 30.18 57.8 237.8 12.99 -137.2 0 -0.3 47.0 53.3 0 2429 0 0 0 63.8 51.5 0.0
2026 04/29 20:00 44.9 52.8 54.7 25.9 30.19 58.0 132.3 12.99 -137.1 0 -0.3 46.1 51.9 0 2429 0 0 0 63.0 51.3 0.0
2026 04/29 20:15 44.6 54.4 62.0 26.9 30.19 58.4 38.7 13.01 -137.1 0 -997.0 -997.0 50.5 0 2429 0 0 0 62.1 51.0 0.0
2026 04/29 20:30 44.0 54.5 71.3 26.9 30.19 58.6 4.8 12.99 -137.1 0 -0.1 45.2 49.9 0 2429 0 0 0 61.5 50.7 0.0
2026 04/29 20:45 43.7 55.2 62.2 29.2 30.20 59.0 0.3 12.99 -137.0 0 -0.3 44.3 49.5 0 2429 0 0 0 61.0 50.5 0.0
2026 04/29 21:00 43.4 56.4 67.7 27.5 30.21 59.2 0.0 13.00 -137.0 0 -0.2 44.3 49.0 0 2429 0 0 0 60.1 50.2 0.0
2026 04/29 21:15 43.0 56.4 72.7 27.2 30.21 59.5 0.0 13.01 -137.0 0 -997.0 -997.0 48.6 0 2429 0 0 0 59.3 50.0 0.0
2026 04/29 21:30 43.2 55.6 63.4 30.7 30.22 59.6 0.0 13.01 -137.0 0 0.2 43.4 48.1 0 2429 0 0 0 58.6 49.7 0.0
2026 04/29 21:45 42.8 55.3 55.4 29.5 30.22 59.7 0.0 13.00 -137.0 0 -0.0 43.4 47.8 0 2429 0 0 0 58.2 49.5 0.0
2026 04/29 22:00 42.7 53.8 74.5 30.5 30.22 59.9 0.0 13.00 -136.9 0 0.2 42.5 47.4 0 2429 0 0 0 57.5 49.2 0.0
2026 04/29 22:15 42.7 52.2 67.2 32.7 30.22 59.9 0.0 12.99 -136.9 0 -997.0 -997.0 47.2 0 2429 0 0 0 56.8 48.9 0.0
2026 04/29 22:30 42.2 52.6 71.3 31.1 30.22 60.1 0.0 12.99 -136.9 0 -0.0 43.4 47.2 0 2429 0 0 0 56.2 48.7 0.0
2026 04/29 22:45 42.2 52.6 74.4 29.8 30.22 60.1 0.0 12.98 -136.9 0 -0.0 42.5 46.7 0 2429 0 0 0 55.8 48.5 0.0
2026 04/29 23:00 42.1 52.7 67.0 31.6 30.22 60.1 0.0 13.00 -136.9 0 -0.3 42.5 45.9 0 2429 0 0 0 55.4 48.2 0.0
2026 04/29 23:15 42.2 52.7 76.6 32.1 30.22 60.1 0.0 13.01 -136.9 0 -997.0 -997.0 45.4 0 2429 0 0 0 54.7 47.8 0.0
2026 04/29 23:30 42.0 54.7 84.1 31.3 30.22 60.2 0.0 13.01 -136.9 0 -0.2 41.6 44.9 0 2429 0 0 0 54.2 47.7 0.0
2026 04/29 23:45 41.6 54.7 78.5 30.8 30.23 60.2 0.0 13.01 -136.9 0 0.1 40.7 44.8 0 2429 0 0 0 53.9 47.5 0.0
2026 04/30 00:00 41.6 55.5 80.7 31.6 30.22 60.2 0.0 12.99 -136.9 0 -0.1 40.7 44.5 0 2429 0 0 0 53.4 47.2 0.0
2026 04/30 00:15 41.6 57.7 79.3 31.8 30.22 60.1 0.0 13.00 -136.9 0 -997.0 -997.0 44.1 0 2429 0 0 0 53.0 47.0 0.0
2026 04/30 00:30 41.3 62.1 83.8 32.0 30.22 60.1 0.0 12.99 -137.0 0 -997.0 -997.0 44.0 0 2429 0 0 0 52.7 46.9 0.0
2026 04/30 00:45 41.3 64.9 84.0 31.6 30.22 60.1 0.0 13.01 -137.0 0 -0.3 40.7 43.8 0 2429 0 0 0 52.3 46.7 0.0
2026 04/30 01:00 41.1 67.5 90.3 32.2 30.21 60.1 0.0 12.99 -137.0 0 -0.2 40.7 43.4 0 2429 0 0 0 51.9 46.6 0.0
2026 04/30 01:15 41.2 68.5 88.1 31.8 30.22 60.1 0.0 13.01 -137.0 0 -997.0 -997.0 43.9 0 2429 0 0 0 51.4 46.4 0.0
2026 04/30 01:30 41.0 66.9 84.8 29.6 30.21 59.9 0.0 13.01 -137.0 0 -997.0 -997.0 43.6 0 2429 0 0 0 51.2 46.1 0.0
2026 04/30 01:45 41.1 68.3 86.5 29.5 30.20 59.9 0.0 13.00 -137.0 0 -997.0 -997.0 43.6 0 2429 0 0 0 50.9 46.0 0.0
2026 04/30 02:00 41.0 66.7 86.5 30.4 30.20 59.9 0.0 12.99 -137.0 0 -997.0 -997.0 43.5 0 2429 0 0 0 50.6 45.9 0.0
2026 04/30 02:15 42.1 68.3 88.8 31.9 30.20 59.7 0.0 13.00 -137.0 0 -997.0 -997.0 42.2 0 2429 0 0 0 48.6 44.8 0.0
2026 04/30 02:30 40.7 68.3 85.0 30.5 30.20 59.7 0.0 12.98 -137.0 0 -997.0 -997.0 42.2 0 2429 0 0 0 48.6 44.8 0.0
2026 04/30 02:45 40.7 67.6 87.9 30.4 30.19 59.6 0.0 13.00 -137.1 0 -997.0 -997.0 42.2 0 2429 0 0 0 48.6 44.8 0.0
2026 04/30 03:00 40.7 68.6 87.9 29.5 30.19 59.5 0.0 13.01 -137.1 0 -997.0 -997.0 42.2 0 2429 0 0 0 48.6 44.8 0.0
2026 04/30 03:15 40.7 67.3 88.3 30.4 30.18 59.5 0.0 12.99 -137.1 0 -997.0 -997.0 42.2 0 2429 0 0 0 48.6 44.8 0.0
2026 04/30 03:30 40.6 67.2 84.4 30.2 30.18 59.3 0.0 12.99 -137.1 0 -997.0 -997.0 42.2 0 2429 0 0 0 48.6 44.8 0.0
2026 04/30 03:45 40.7 67.6 88.3 31.4 30.19 59.2 0.0 12.99 -137.1 0 -0.0 39.8 42.2 0 2429 0 0 0 48.6 44.8 0.0
2026 04/30 04:00 40.6 66.6 92.1 30.1 30.18 59.1 0.0 12.98 -137.1 0 -0.2 39.8 42.1 0 2429 0 0 0 48.2 44.7 0.0
2026 04/30 04:15 40.9 66.4 92.8 28.8 30.18 59.0 0.0 13.01 -137.1 0 -0.2 39.8 42.0 0 2429 0 0 0 47.6 44.3 0.0
2026 04/30 04:30 40.6 68.0 98.0 29.2 30.18 58.9 0.0 12.99 -137.2 0 -0.4 39.8 42.1 0 2429 0 0 0 47.6 44.3 0.0
2026 04/30 04:45 40.4 70.0 89.4 28.9 30.18 58.6 0.0 12.98 -137.2 0 -0.4 39.8 42.0 0 2429 0 0 0 47.4 44.1 0.0
2026 04/30 05:00 40.5 71.5 86.8 28.4 30.17 58.6 0.0 12.99 -137.2 0 -0.2 39.8 41.7 0 2429 0 0 0 47.0 44.1 0.0
2026 04/30 05:15 40.2 73.1 90.9 28.4 30.17 58.4 0.0 13.01 -137.2 0 0.0 38.9 41.7 0 2429 0 0 0 46.8 43.9 0.0
2026 04/30 05:30 40.2 72.5 91.5 27.3 30.17 58.2 0.7 13.00 -137.2 0 0.0 38.9 41.7 0 2429 0 0 0 46.6 43.8 0.0
2026 04/30 05:45 40.6 70.4 82.2 26.8 30.17 58.2 10.9 12.99 -137.2 0 -0.1 39.8 41.8 0 2429 0 0 0 46.4 43.7 0.0
2026 04/30 06:00 40.4 71.5 85.5 26.6 30.16 58.0 83.5 13.01 -137.2 0 -0.0 39.8 42.1 0 2429 0 0 0 46.2 43.5 0.0
2026 04/30 06:15 40.2 72.9 82.2 26.4 30.16 57.8 208.3 12.98 -137.2 0 -0.4 40.7 42.4 0 2429 0 0 0 46.1 43.4 0.0
2026 04/30 06:30 40.2 73.0 102.6 24.4 30.16 57.7 312.5 13.01 -137.3 0 -0.4 40.7 42.9 0 2429 0 0 0 45.9 43.3 0.0
2026 04/30 06:45 40.0 74.6 90.0 27.3 30.16 57.6 374.2 12.99 -137.3 0 -0.4 41.6 43.3 0 2429 0 0 0 45.9 43.3 0.0
2026 04/30 07:00 40.2 74.8 90.1 27.9 30.16 57.5 398.0 13.00 -137.3 0 -0.3 41.6 44.1 0 2429 0 0 0 45.9 43.2 0.0
2026 04/30 07:15 40.2 75.5 92.0 28.5 30.16 57.4 458.4 12.99 -137.3 0 -0.4 42.5 45.0 0 2429 0 0 0 46.0 43.1 0.0
2026 04/30 07:30 40.2 75.5 98.8 28.0 30.16 57.3 501.1 12.99 -137.3 0 -0.6 43.4 45.9 0 2429 0 0 0 46.1 43.2 0.0
2026 04/30 07:45 40.4 75.1 83.7 29.2 30.16 57.1 531.3 13.01 -137.3 0 -0.5 44.3 46.6 0 2429 0 0 0 46.4 43.3 0.0
2026 04/30 08:00 40.4 76.5 95.0 28.7 30.16 57.1 547.2 12.99 -137.3 0 -0.6 46.1 47.5 0 2429 0 0 0 47.0 43.8 0.0
2026 04/30 08:15 40.6 76.8 94.3 28.4 30.16 56.9 540.1 12.99 -137.3 0 -0.4 45.2 47.9 0 2429 0 0 0 47.7 44.4 0.0
2026 04/30 08:30 41.0 76.3 88.5 27.5 30.16 56.9 590.0 12.99 -137.3 0 -0.5 46.1 48.1 0 2429 0 0 0 48.4 45.1 0.0
2026 04/30 08:45 41.2 75.5 94.4 26.2 30.16 56.9 612.0 12.99 -137.3 0 -0.4 47.0 48.9 0 2429 0 0 0 48.9 45.7 0.0
2026 04/30 09:00 41.6 75.0 96.0 25.1 30.16 56.7 626.0 12.99 -137.3 0 -0.2 48.8 49.8 0 2429 0 0 0 49.7 46.7 0.0
2026 04/30 09:15 42.9 73.2 94.2 25.9 30.16 56.7 643.3 12.99 -137.5 0 -997.0 -997.0 50.4 0 2429 0 0 0 50.5 47.7 0.0
2026 04/30 09:30 43.2 69.8 89.3 25.3 30.16 56.7 668.4 13.00 -137.5 0 -0.2 49.7 51.5 0 2429 0 0 0 51.5 48.8 0.0
2026 04/30 09:45 43.8 68.8 90.1 26.7 30.16 56.7 678.5 13.00 -137.3 0 -0.2 50.6 52.1 0 2429 0 0 0 52.2 49.5 0.0
2026 04/30 10:00 44.0 67.8 106.2 26.1 30.16 56.7 690.4 13.01 -137.5 0 -0.6 50.6 53.4 0 2429 0 0 0 53.3 50.7 0.0
2026 04/30 10:15 44.3 66.5 90.5 25.2 30.16 56.7 701.0 13.01 -137.5 0 -0.5 50.6 54.0 0 2429 0 0 0 54.7 52.0 0.0
2026 04/30 10:30 44.4 67.1 85.5 27.1 30.16 56.5 684.0 12.99 -137.5 0 -0.4 50.6 55.5 0 2429 0 0 0 55.8 53.0 0.0
2026 04/30 10:45 44.6 65.9 87.1 25.5 30.16 56.5 696.2 12.99 -137.5 0 -0.1 51.5 55.9 0 2429 0 0 0 56.6 53.7 0.0
2026 04/30 11:00 45.6 65.1 93.3 23.2 30.17 56.5 696.2 13.01 -137.5 0 -0.6 51.5 56.7 0 2429 0 0 0 57.5 54.5 0.0
2026 04/30 11:15 45.7 65.3 86.7 25.5 30.17 56.5 700.0 12.99 -137.5 0 -0.7 52.4 57.5 0 2429 0 0 0 58.4 55.0 0.0
2026 04/30 11:30 47.0 64.0 101.1 21.5 30.17 56.5 718.0 12.99 -137.3 0 -0.2 53.3 58.2 0 2429 0 0 0 59.3 55.8 0.0
2026 04/30 11:45 47.3 61.6 89.8 24.2 30.16 56.7 728.0 13.00 -137.3 0 0.0 54.2 58.6 0 2429 0 0 0 60.1 56.4 0.0
2026 04/30 12:00 47.8 61.9 98.5 24.5 30.17 56.7 735.0 12.99 -137.3 0 0.1 55.1 60.4 0 2429 0 0 0 61.1 56.9 0.0
2026 04/30 12:15 48.5 60.8 78.9 18.0 30.16 56.7 716.0 13.01 -137.3 0 -0.2 53.3 59.7 0 2429 0 0 0 62.2 57.8 0.0
2026 04/30 12:30 49.5 58.8 124.2 17.6 30.16 56.7 734.0 12.99 -137.3 0 -0.7 56.0 61.8 0 2429 0 0 0 63.2 58.4 0.0
2026 04/30 12:45 50.4 56.4 98.9 19.2 30.16 56.8 747.0 12.99 -137.3 0 0.2 56.9 62.1 0 2429 0 0 0 64.0 58.8 0.0
2026 04/30 13:00 50.5 55.2 98.6 16.4 30.16 56.9 709.0 13.01 -137.3 0 -0.2 56.9 62.9 0 2429 0 0 0 64.9 59.3 0.0
2026 04/30 13:15 51.2 51.6 110.2 16.8 30.16 56.9 736.0 12.99 -137.3 0 -0.6 58.7 63.1 0 2429 0 0 0 65.7 59.7 0.0
2026 04/30 13:30 51.1 50.5 104.5 18.9 30.16 56.9 733.0 13.01 -137.3 0 -0.9 58.7 65.1 0 2429 0 0 0 66.5 60.1 0.0
2026 04/30 13:45 53.2 47.6 110.2 17.9 30.16 57.1 723.0 12.99 -137.3 0 -0.3 59.6 65.5 0 2429 0 0 0 67.0 60.5 0.0
2026 04/30 14:00 53.1 45.2 98.2 18.4 30.16 57.1 733.0 13.02 -137.3 0 -0.2 61.4 66.7 0 2429 0 0 0 67.7 60.6 0.0
2026 04/30 14:15 53.4 45.4 81.2 14.1 30.16 57.4 751.0 13.00 -137.3 0 -1.2 62.3 68.2 0 2429 0 0 0 68.1 60.9 0.0
2026 04/30 14:30 54.7 44.6 122.4 5.4 30.16 57.4 690.1 13.01 -137.3 0 -0.2 61.4 67.3 0 2429 0 0 0 68.7 60.7 0.0
2026 04/30 14:45 53.9 45.0 84.0 10.6 30.16 57.6 689.7 13.01 -137.2 0 -0.4 61.4 69.2 0 2429 0 0 0 69.0 60.7 0.0
2026 04/30 15:00 54.0 45.0 47.1 17.2 30.16 57.7 746.0 13.01 -137.2 0 -0.5 61.4 70.8 0 2429 0 0 0 69.3 60.6 0.0
2026 04/30 15:15 54.3 45.7 51.6 12.8 30.16 57.8 696.5 12.99 -137.2 0 -0.6 60.5 68.7 0 2429 0 0 0 69.6 60.6 0.0
2026 04/30 15:30 54.7 45.1 93.8 14.6 30.16 58.0 755.0 13.00 -137.2 0 -0.7 61.4 69.9 0 2429 0 0 0 69.9 60.3 0.0
2026 04/30 15:45 55.9 43.8 80.3 13.5 30.16 58.2 749.0 12.99 -137.2 0 -0.1 61.4 71.2 0 2429 0 0 0 70.0 60.3 0.0
2026 04/30 16:00 55.3 43.7 79.9 14.1 30.15 58.4 740.0 13.00 -137.1 0 -0.1 62.3 73.3 0 2429 0 0 0 70.3 60.1 0.0
2026 04/30 16:15 56.1 43.0 60.5 12.2 30.15 58.6 716.0 12.99 -137.1 0 -0.3 62.3 74.6 0 2429 0 0 0 70.5 60.1 0.0
2026 04/30 16:30 56.0 44.2 37.5 5.5 30.15 58.9 734.0 12.99 -137.1 0 -0.3 62.3 75.3 0 2429 0 0 0 70.9 59.9 0.0
2026 04/30 16:45 56.7 43.5 36.5 12.5 30.15 59.1 721.0 13.01 -137.1 0 -1.1 62.3 76.8 0 2429 0 0 0 71.3 59.9 0.0
2026 04/30 17:00 56.2 42.1 77.9 12.6 30.15 59.4 709.0 12.99 -137.0 0 -0.4 62.3 78.3 0 2429 0 0 0 72.0 59.7 0.0
2026 04/30 17:15 56.0 42.1 108.1 7.9 30.15 59.7 694.8 13.01 -137.0 0 -0.6 62.3 79.9 0 2429 0 0 0 72.5 59.7 0.0
2026 04/30 17:30 56.4 42.3 61.6 15.2 30.15 59.9 686.7 12.99 -136.9 0 -0.1 62.3 80.0 0 2429 0 0 0 72.9 59.6 0.0
2026 04/30 17:45 55.4 43.6 64.2 16.7 30.16 60.4 666.7 13.00 -136.7 0 -0.3 61.4 78.6 0 2429 0 0 0 73.0 59.5 0.0
2026 04/30 18:00 55.3 44.3 55.8 14.4 30.16 60.7 658.5 13.01 -136.7 0 -1.0 60.5 80.3 0 2429 0 0 0 73.0 59.3 0.0
2026 04/30 18:15 55.0 44.7 90.7 17.5 30.16 61.0 652.4 13.00 -136.6 0 -0.7 60.5 81.7 0 2429 0 0 0 72.9 59.1 0.0
2026 04/30 18:30 54.7 45.0 57.3 17.3 30.16 61.4 621.9 13.02 -136.5 0 -1.1 60.5 71.1 0 2429 0 0 0 72.8 58.8 0.0
2026 04/30 18:45 54.6 44.6 88.2 18.5 30.17 61.7 565.5 12.99 -136.4 0 -1.0 59.6 67.7 0 2429 0 0 0 72.7 58.7 0.0
2026 04/30 19:00 54.2 45.3 69.2 20.9 30.17 62.1 509.9 12.98 -136.2 0 -0.9 57.8 64.9 0 2429 0 0 0 72.3 58.5 0.0
2026 04/30 19:15 53.5 45.8 77.1 21.1 30.17 62.4 491.6 13.00 -136.1 0 -0.7 56.0 62.8 0 2429 0 0 0 71.8 58.3 0.0
2026 04/30 19:30 53.1 46.2 76.0 20.9 30.17 62.7 340.9 12.99 -136.0 0 -0.3 54.2 61.3 0 2429 0 0 0 71.1 57.9 0.0
2026 04/30 19:45 52.6 47.0 66.7 21.2 30.17 63.1 196.8 13.00 -136.0 0 -0.8 53.3 60.5 0 2429 0 0 0 70.4 57.7 0.0
2026 04/30 20:00 52.3 46.5 76.5 22.2 30.18 63.3 139.1 12.99 -135.9 0 -0.4 52.4 59.5 0 2429 0 0 0 69.6 57.3 0.0
2026 04/30 20:15 52.3 45.3 68.9 24.4 30.18 63.6 35.3 13.00 -135.7 0 -0.5 51.5 58.2 0 2429 0 0 0 68.9 56.9 0.0
2026 04/30 20:30 51.6 46.4 69.4 26.5 30.18 63.9 4.7 12.98 -135.6 0 -0.1 51.5 57.1 0 2429 0 0 0 68.0 56.6 0.0
2026 04/30 20:45 51.0 47.8 63.7 29.4 30.19 64.1 0.0 13.00 -135.5 0 -0.4 50.6 56.7 0 2429 0 0 0 67.4 56.2 0.0
2026 04/30 21:00 50.2 49.7 79.2 26.8 30.19 64.3 0.0 12.99 -135.5 0 -0.5 50.6 55.8 0 2429 0 0 0 66.6 55.9 0.0
2026 04/30 21:15 49.9 50.8 57.4 27.3 30.20 64.6 0.0 13.00 -135.4 0 -0.2 49.7 54.9 0 2429 0 0 0 65.7 55.6 0.0
2026 04/30 21:30 49.4 51.6 66.4 28.8 30.21 64.8 0.0 12.99 -135.3 0 -0.0 49.7 54.8 0 2429 0 0 0 64.9 55.4 0.0
2026 04/30 21:45 48.9 52.2 73.3 28.4 30.21 64.9 0.0 13.00 -135.3 0 -0.4 49.7 54.4 0 2429 0 0 0 64.4 55.0 0.0
2026 04/30 22:00 48.5 53.0 68.5 27.3 30.22 65.0 0.0 12.99 -135.3 0 -0.3 48.8 53.5 0 2429 0 0 0 63.7 54.7 0.0
2026 04/30 22:15 48.3 53.4 74.7 27.8 30.22 65.2 0.0 13.00 -135.1 0 -0.1 48.8 53.0 0 2429 0 0 0 63.0 54.3 0.0
2026 04/30 22:30 48.0 53.5 80.1 27.4 30.22 65.2 0.0 12.99 -135.1 0 -0.2 47.9 52.2 0 2429 0 0 0 62.4 54.1 0.0
2026 04/30 22:45 49.8 53.7 78.0 27.1 30.22 65.3 0.0 12.99 -135.1 0 -0.4 47.9 51.9 0 2429 0 0 0 61.9 53.9 0.0
2026 04/30 23:00 48.2 52.6 78.2 30.4 30.21 65.3 0.0 12.99 -135.1 0 -0.4 47.9 51.3 0 2429 0 0 0 61.3 53.7 0.0
2026 04/30 23:15 47.9 52.6 79.1 29.3 30.21 65.4 0.0 12.99 -135.1 0 -0.3 47.0 50.8 0 2429 0 0 0 60.9 53.4 0.0
2026 04/30 23:30 48.0 52.0 82.6 28.2 30.22 65.4 0.0 13.01 -135.1 0 -0.1 47.0 50.5 0 2429 0 0 0 60.4 53.2 0.0
2026 04/30 23:45 47.7 53.0 78.1 25.8 30.22 65.4 0.0 12.99 -135.1 0 -0.1 47.0 50.4 0 2429 0 0 0 60.0 53.0 0.0
2026 05/01 00:00 47.7 53.1 84.2 24.5 30.22 65.4 0.0 12.99 -135.1 0 -0.1 47.0 50.2 0 2429 0 0 0 59.5 52.8 0.0
2026 05/01 00:15 47.6 53.4 79.7 24.9 30.22 65.4 0.0 12.99 -135.3 0 -0.1 47.0 50.2 0 2429 0 0 0 59.1 52.5 0.0
2026 05/01 00:30 47.4 53.8 85.6 26.8 30.22 65.3 0.0 12.99 -135.3 0 -0.3 46.1 49.8 0 2429 0 0 0 58.5 52.2 0.0
2026 05/01 00:45 47.4 54.5 82.5 24.8 30.22 65.3 0.0 12.99 -135.3 0 -0.2 46.1 49.6 0 2429 0 0 0 58.0 52.1 0.0
2026 05/01 01:00 47.4 53.8 88.0 26.5 30.21 65.3 0.0 13.00 -135.3 0 -0.3 46.1 49.2 0 2429 0 0 0 57.6 51.9 0.0
2026 05/01 01:15 47.4 53.6 88.8 26.7 30.21 65.2 0.0 13.01 -135.4 0 -0.2 46.1 49.2 0 2429 0 0 0 57.2 51.6 0.0
2026 05/01 01:30 47.6 53.9 83.7 24.8 30.21 65.1 0.0 13.00 -135.4 0 -0.0 46.1 49.0 0 2429 0 0 0 56.6 51.4 0.0
2026 05/01 01:45 47.4 54.7 90.6 28.7 30.21 65.0 0.0 12.99 -135.4 0 -0.3 46.1 48.9 0 2429 0 0 0 56.4 51.2 0.0
2026 05/01 02:00 47.6 54.0 86.8 28.5 30.20 65.0 0.0 13.01 -135.5 0 -0.2 46.1 48.8 0 2429 0 0 0 56.0 51.0 0.0
2026 05/01 02:15 48.5 55.0 85.1 28.7 30.19 64.9 0.0 13.00 -135.5 0 -997.0 -997.0 48.7 0 2429 0 0 0 55.7 50.7 0.0
2026 05/01 02:30 47.3 54.8 78.4 28.9 30.19 64.8 0.0 12.98 -135.5 0 -0.4 46.1 48.5 0 2429 0 0 0 55.4 50.6 0.0
2026 05/01 02:45 47.4 55.2 87.2 30.2 30.19 64.7 0.0 12.98 -135.6 0 -0.2 46.1 48.3 0 2429 0 0 0 55.1 50.4 0.0
2026 05/01 03:00 47.6 55.7 88.5 29.4 30.18 64.6 0.0 12.99 -135.6 0 -0.3 46.1 48.3 0 2429 0 0 0 54.7 50.2 0.0
2026 05/01 03:15 47.4 55.4 90.8 29.1 30.18 64.5 0.0 12.99 -135.7 0 -0.2 46.1 48.1 0 2429 0 0 0 54.3 50.1 0.0
2026 05/01 03:30 47.3 55.4 89.0 29.6 30.18 64.4 0.0 12.99 -135.7 0 -0.4 46.1 48.1 0 2429 0 0 0 54.1 49.7 0.0
2026 05/01 03:45 47.3 55.2 84.6 31.3 30.17 64.2 0.0 12.99 -135.7 0 -0.2 46.1 47.9 0 2429 0 0 0 53.9 49.6 0.0
2026 05/01 04:00 46.8 54.9 87.6 29.4 30.17 64.1 0.0 13.00 -135.9 0 -0.2 46.1 47.8 0 2429 0 0 0 53.7 49.5 0.0
2026 05/01 04:15 46.6 55.8 91.1 29.9 30.17 63.9 0.0 12.99 -135.9 0 -0.2 46.1 47.7 0 2429 0 0 0 53.3 49.4 0.0
2026 05/01 04:30 46.5 57.5 98.0 28.1 30.16 63.8 0.0 13.00 -136.0 0 -0.2 46.1 47.8 0 2429 0 0 0 53.1 49.2 0.0
2026 05/01 04:45 46.2 58.4 98.1 27.1 30.16 63.7 0.0 12.98 -136.0 0 -0.1 45.2 47.6 0 2429 0 0 0 52.9 49.0 0.0
2026 05/01 05:00 45.7 58.9 98.2 26.6 30.15 63.6 0.0 12.99 -136.0 0 -0.5 45.2 47.1 0 2429 0 0 0 52.5 48.8 0.0
2026 05/01 05:15 45.5 59.6 102.4 26.9 30.15 63.5 0.0 13.00 -136.1 0 -0.5 45.2 47.2 0 2429 0 0 0 52.5 48.8 0.0
2026 05/01 05:30 45.6 59.7 97.6 24.1 30.14 63.3 0.7 12.99 -136.1 0 -0.4 44.3 46.8 0 2429 0 0 0 52.5 48.8 0.0
2026 05/01 05:45 45.3 60.3 114.4 18.2 30.14 63.2 14.9 12.98 -136.1 0 -0.3 44.3 46.7 0 2429 0 0 0 52.5 48.8 0.0
2026 05/01 06:00 44.9 60.5 119.9 19.4 30.14 63.1 88.9 13.00 -136.2 0 -0.4 44.3 46.6 0 2429 0 0 0 52.5 48.8 0.0
2026 05/01 06:15 46.7 61.0 98.6 23.1 30.14 62.9 204.6 13.00 -136.2 0 -0.2 44.3 46.7 0 2429 0 0 0 52.5 48.8 0.0
2026 05/01 06:30 44.8 60.9 106.9 19.2 30.14 62.8 298.9 13.00 -136.2 0 -0.4 45.2 47.1 0 2429 0 0 0 50.9 47.9 0.0
2026 05/01 06:45 44.6 61.0 100.4 20.6 30.14 62.7 376.2 12.98 -136.4 0 -0.4 46.1 47.8 0 2429 0 0 0 50.7 47.8 0.0
2026 05/01 07:00 45.0 60.7 115.4 16.7 30.14 62.5 424.4 13.00 -136.4 0 -0.3 47.0 48.6 0 2429 0 0 0 50.6 47.7 0.0
2026 05/01 07:15 45.6 59.3 104.5 16.5 30.14 62.4 456.0 12.99 -136.4 0 -0.3 47.0 49.6 0 2429 0 0 0 50.6 47.6 0.0
2026 05/01 07:30 46.2 58.2 104.6 18.6 30.15 62.3 487.9 12.98 -136.5 0 -0.4 47.9 50.3 0 2429 0 0 0 50.9 47.6 0.0
2026 05/01 07:45 45.6 60.4 102.7 22.1 30.15 62.1 533.0 12.98 -136.5 0 -0.4 48.8 51.0 0 2429 0 0 0 51.0 47.6 0.0
2026 05/01 08:00 46.1 57.8 104.7 19.9 30.15 62.1 544.9 12.99 -136.5 0 -0.4 49.7 52.1 0 2429 0 0 0 51.5 47.8 0.0
2026 05/01 08:15 45.9 59.5 98.5 20.4 30.15 62.0 566.2 13.00 -136.5 0 -0.2 49.7 53.0 0 2429 0 0 0 52.0 48.2 0.0
2026 05/01 08:30 46.8 55.6 97.6 19.4 30.15 61.9 572.0 13.01 -136.5 0 -0.4 50.6 53.7 0 2429 0 0 0 52.5 48.7 0.0
2026 05/01 08:45 48.1 51.4 105.4 15.1 30.15 61.8 600.8 13.00 -136.6 0 -0.5 51.5 54.0 0 2429 0 0 0 53.1 49.2 0.0
2026 05/01 09:00 48.5 53.6 96.7 13.9 30.15 61.6 639.5 12.99 -136.6 0 -0.4 53.3 55.3 0 2429 0 0 0 53.8 49.8 0.0
2026 05/01 09:15 48.8 55.3 101.3 12.4 30.15 61.6 647.7 13.02 -136.6 0 -0.6 55.1 56.7 0 2429 0 0 0 54.7 50.7 0.0
2026 05/01 09:30 49.3 55.0 104.1 8.6 30.16 61.5 611.4 13.00 -136.6 0 -0.4 53.3 57.4 0 2429 0 0 0 55.5 51.5 0.0
2026 05/01 09:45 49.2 53.5 85.9 8.8 30.16 61.4 617.1 13.01 -136.6 0 -0.5 53.3 57.5 0 2429 0 0 0 56.0 52.0 0.0
2026 05/01 10:00 49.0 54.2 61.0 11.9 30.15 61.4 667.7 13.01 -136.6 0 -0.4 54.2 58.2 0 2429 0 0 0 56.7 52.5 0.0
2026 05/01 10:15 50.0 49.2 70.5 9.3 30.16 61.3 690.1 13.00 -136.6 0 -0.6 55.1 59.1 0 2429 0 0 0 57.7 53.3 0.0
2026 05/01 10:30 51.5 47.0 77.6 10.2 30.16 61.2 707.0 12.99 -136.7 0 -0.1 56.9 60.0 0 2429 0 0 0 59.0 54.5 0.0
2026 05/01 10:45 53.1 48.2 114.8 8.7 30.16 61.2 713.0 13.01 -136.6 0 -0.1 57.8 60.4 0 2429 0 0 0 60.0 55.4 0.0
2026 05/01 11:00 53.7 47.2 89.9 10.5 30.15 61.2 725.0 12.99 -136.7 0 -0.5 57.8 62.1 0 2429 0 0 0 61.4 56.6 0.0
2026 05/01 11:15 53.6 47.7 78.1 12.4 30.16 61.2 723.0 13.01 -136.7 0 -0.7 58.7 62.7 0 2429 0 0 0 62.9 57.6 0.0
2026 05/01 11:30 54.8 46.9 90.2 11.4 30.16 61.2 744.0 13.01 -136.7 0 -0.2 61.4 64.2 0 2429 0 0 0 64.2 58.6 0.0
2026 05/01 11:45 55.1 48.5 61.8 15.2 30.15 61.2 736.0 13.01 -136.6 0 -0.9 61.4 65.1 0 2429 0 0 0 65.3 59.5 0.0
2026 05/01 12:00 55.9 44.8 73.3 13.4 30.15 61.2 744.0 13.01 -136.6 0 -0.2 63.2 65.7 0 2429 0 0 0 66.4 60.3 0.0
2026 05/01 12:15 57.3 42.3 65.7 11.3 30.15 61.2 738.0 12.99 -136.6 0 -0.7 63.2 67.7 0 2429 0 0 0 67.7 61.2 0.0
2026 05/01 12:30 58.1 41.4 67.5 8.7 30.15 61.3 744.0 12.99 -136.6 0 -0.3 64.1 68.2 0 2429 0 0 0 68.9 61.9 0.0
2026 05/01 12:45 57.0 39.5 60.6 11.4 30.15 61.3 620.5 13.01 -136.6 0 -0.5 63.2 68.3 0 2429 0 0 0 69.9 62.2 0.0
2026 05/01 13:00 59.5 41.3 179.6 2.6 30.15 61.4 619.5 13.00 -136.6 0 -1.0 64.1 67.8 0 2429 0 0 0 70.5 62.2 0.0
2026 05/01 13:15 58.9 35.8 157.1 7.9 30.14 61.5 613.4 12.99 -136.6 0 -0.6 63.2 68.1 0 2429 0 0 0 70.8 62.1 0.0
2026 05/01 13:30 59.2 34.2 164.3 9.7 30.14 61.6 583.9 13.02 -136.5 0 -0.3 63.2 68.5 0 2429 0 0 0 71.0 61.8 0.0
2026 05/01 13:45 59.5 33.3 202.2 14.2 30.15 61.8 659.5 12.98 -136.5 0 -0.5 65.0 68.6 0 2429 0 0 0 71.1 61.7 0.0
2026 05/01 14:00 60.5 32.5 170.7 8.8 30.14 61.9 731.0 13.00 -136.5 0 -1.1 68.6 73.2 0 2429 0 0 0 71.4 61.4 0.0
2026 05/01 14:15 60.3 32.2 171.7 18.6 30.13 62.0 572.7 13.00 -136.4 0 -0.6 65.0 71.3 0 2429 0 0 0 72.0 61.5 0.0
2026 05/01 14:30 60.8 33.9 102.3 4.8 30.14 62.2 659.9 13.02 -136.4 0 -0.4 65.0 72.4 0 2429 0 0 0 72.3 61.7 0.0
2026 05/01 14:45 62.5 30.9 190.1 9.3 30.14 62.3 769.0 12.99 -136.4 0 -0.5 68.6 73.5 0 2429 0 0 0 72.6 61.5 0.0
2026 05/01 15:00 61.3 32.8 141.3 7.1 30.14 62.5 760.0 13.00 -136.2 0 -1.6 69.5 74.9 0 2429 0 0 0 72.9 61.7 0.0
2026 05/01 15:15 62.8 32.8 208.4 10.8 30.13 62.7 753.0 13.00 -136.2 0 -0.7 68.6 75.3 0 2429 0 0 0 73.2 61.8 0.0
2026 05/01 15:30 63.0 36.7 236.3 12.5 30.13 62.8 754.0 12.99 -136.1 0 -0.9 69.5 77.7 0 2429 0 0 0 74.0 62.0 0.0
2026 05/01 15:45 61.6 38.2 194.3 10.0 30.13 63.0 749.0 12.98 -136.1 0 -1.5 67.7 77.1 0 2429 0 0 0 74.4 62.0 0.0
2026 05/01 16:00 62.4 44.8 258.2 12.6 30.13 63.2 723.0 13.00 -136.0 0 -1.1 67.7 77.7 0 2429 0 0 0 74.9 62.1 0.0
2026 05/01 16:15 61.9 44.4 349.5 9.1 30.13 63.4 720.0 13.01 -135.9 0 -0.7 65.9 73.1 0 2429 0 0 0 75.6 62.2 0.0
2026 05/01 16:30 62.0 52.2 230.4 8.9 30.13 63.7 715.0 13.01 -135.7 0 -1.2 64.1 72.9 0 2429 0 0 0 75.8 62.4 0.0
2026 05/01 16:45 60.4 54.3 318.5 14.4 30.12 63.9 711.0 13.01 -135.6 0 -0.9 63.2 71.9 0 2429 0 0 0 76.2 62.4 0.0
2026 05/01 17:00 58.7 58.6 227.1 12.6 30.13 64.2 553.3 13.01 -135.5 0 -0.7 62.3 69.9 0 2429 0 0 0 76.2 62.4 0.0
2026 05/01 17:15 60.1 57.3 228.1 4.9 30.14 64.5 639.8 13.01 -135.4 0 -0.5 63.2 70.4 0 2429 0 0 0 76.0 62.4 0.0
2026 05/01 17:30 59.3 58.7 287.0 10.0 30.14 64.8 572.9 13.01 -135.3 0 -0.9 62.3 70.1 0 2429 0 0 0 75.9 62.4 0.0
2026 05/01 17:45 58.3 61.3 308.1 14.6 30.13 65.1 684.5 13.01 -135.0 0 -0.7 61.4 72.3 0 2429 0 0 0 76.0 62.3 0.0
2026 05/01 18:00 58.1 63.1 77.8 6.7 30.14 65.4 614.0 13.00 -134.9 0 -0.8 61.4 74.2 0 2429 0 0 0 76.0 62.2 0.0
2026 05/01 18:15 56.6 68.7 308.6 14.2 30.14 65.7 564.5 13.00 -134.8 0 -0.7 59.6 72.6 0 2429 0 0 0 75.6 62.2 0.0
2026 05/01 18:30 54.9 70.8 304.9 10.6 30.15 66.0 544.4 12.99 -134.5 0 -0.9 57.8 66.9 0 2429 0 0 0 75.1 62.0 0.0
2026 05/01 18:45 53.2 74.8 305.3 16.1 30.15 66.3 554.6 13.01 -134.3 0 -0.7 56.9 65.1 0 2429 0 0 0 74.8 61.8 0.0
2026 05/01 19:00 52.2 79.6 287.8 11.2 30.15 66.6 403.3 13.02 -134.1 0 -0.9 55.1 64.8 0 2429 0 0 0 74.3 61.7 0.0
2026 05/01 19:15 51.6 83.9 325.7 5.9 30.15 66.8 319.9 12.99 -133.9 0 -0.5 54.2 62.2 0 2429 0 0 0 73.5 61.4 0.0
2026 05/01 19:30 50.7 88.5 301.1 12.2 30.16 67.1 255.4 13.02 -133.8 0 -0.3 53.3 60.0 0 2429 0 0 0 72.9 61.1 0.0
2026 05/01 19:45 50.1 91.3 309.6 15.4 30.15 67.3 181.5 13.01 -133.5 0 -0.4 52.4 59.1 0 2429 0 0 0 72.3 60.9 0.0
2026 05/01 20:00 49.6 93.3 251.2 9.7 30.16 67.5 78.0 13.01 -133.4 0 -0.2 51.5 57.8 0 2429 0 0 0 71.8 60.6 0.0
2026 05/01 20:15 48.9 95.5 320.2 9.5 30.17 67.8 18.3 13.00 -133.3 0 -0.7 50.6 57.5 0 2429 0 0 0 71.2 60.3 0.0
2026 05/01 20:30 48.4 100.1 307.8 12.2 30.17 67.9 1.4 13.00 -133.2 0 -0.4 50.6 57.3 0 2429 0 0 0 70.4 60.0 0.0
2026 05/01 20:45 48.3 99.8 312.6 12.4 30.18 68.0 0.0 13.01 -133.0 0 -0.4 50.6 56.5 0 2429 0 0 0 70.0 59.7 0.0
2026 05/01 21:00 49.1 100.5 308.5 9.4 30.19 68.2 0.0 12.99 -132.9 0 -0.3 49.7 56.1 0 2429 0 0 0 69.4 59.5 0.0
2026 05/01 21:15 47.9 100.3 309.9 14.5 30.18 68.3 0.0 12.99 -132.9 0 -0.4 49.7 55.0 0 2429 0 0 0 68.9 59.3 0.0
2026 05/01 21:30 47.0 100.2 282.6 13.1 30.19 68.4 0.0 12.99 -132.9 0 -0.3 48.8 54.4 0 2429 0 0 0 68.3 59.1 0.0
2026 05/01 21:45 46.3 100.3 284.7 12.9 30.19 68.4 0.0 12.99 -132.8 0 -0.2 47.9 54.1 0 2429 0 0 0 67.8 58.8 0.0
2026 05/01 22:00 46.2 100.3 308.9 13.1 30.19 68.4 0.0 13.00 -132.8 0 -0.2 47.0 53.7 0 2429 0 0 0 67.3 58.6 0.0
2026 05/01 22:15 46.3 100.3 309.7 11.7 30.18 68.4 0.0 13.01 -132.8 0 -0.5 47.0 53.3 0 2429 0 0 0 66.8 58.4 0.0
2026 05/01 22:30 45.8 100.3 302.3 13.7 30.19 68.4 0.0 12.99 -132.8 0 -0.3 46.1 52.3 0 2429 0 0 0 66.5 58.2 0.0
2026 05/01 22:45 46.1 100.3 337.3 14.5 30.19 68.4 0.0 12.99 -132.8 0 -0.3 46.1 52.5 0 2429 0 0 0 66.0 58.0 0.0
2026 05/01 23:00 46.4 100.3 314.0 10.1 30.19 68.4 0.0 12.99 -132.8 0 -0.3 46.1 51.6 0 2429 0 0 0 65.6 57.7 0.0
2026 05/01 23:15 46.3 100.3 242.7 12.4 30.20 68.4 0.0 13.01 -132.9 0 -0.3 47.0 51.9 0 2429 0 0 0 65.1 57.6 0.0
2026 05/01 23:30 44.7 100.2 202.0 25.2 30.21 68.4 0.0 13.01 -132.9 0 -0.2 46.1 51.7 0 2429 0 0 0 64.8 57.4 0.0
2026 05/01 23:45 45.2 100.3 197.5 18.0 30.21 68.3 0.0 13.01 -133.0 0 -0.4 47.0 51.9 0 2429 0 0 0 64.5 57.3 0.0
2026 05/02 00:00 48.1 74.9 121.3 6.4 30.22 68.2 0.0 13.02 -133.0 0 -0.3 47.0 51.2 0 2429 0 0 0 64.1 57.0 0.0
2026 05/02 00:15 48.3 82.5 84.0 11.4 30.21 68.2 0.0 12.99 -133.2 0 0.0 46.1 51.9 0 2429 0 0 0 63.8 56.9 0.0
2026 05/02 00:30 46.8 88.4 70.4 12.8 30.20 68.0 0.0 13.02 -133.2 0 0.0 46.1 51.4 0 2430 0 0 0 63.6 56.7 0.0
2026 05/02 00:45 48.9 71.3 12.7 20.1 30.17 68.0 0.0 13.01 -133.3 0 0.0 46.1 51.4 0 2431 0 0 0 63.3 56.6 0.0
2026 05/02 01:00 49.9 64.4 24.0 16.5 30.16 67.9 0.0 12.99 -133.4 0 0.1 47.0 51.2 0 2431 0 0 0 63.0 56.5 0.0
2026 05/02 01:15 51.6 56.7 61.4 13.2 30.16 67.8 0.0 13.00 -133.5 0 -0.2 46.1 50.7 0 2431 0 0 0 62.7 56.4 0.0
2026 05/02 01:30 52.1 54.3 71.9 14.1 30.15 67.6 0.0 13.01 -133.7 0 -0.5 47.0 49.3 0 2431 0 0 0 62.2 56.1 0.0
2026 05/02 01:45 52.1 54.7 74.9 9.4 30.15 67.5 0.0 13.01 -133.8 0 -0.5 46.1 48.9 0 2431 0 0 0 62.0 56.0 0.0
2026 05/02 02:00 51.5 57.3 64.5 7.9 30.15 67.4 0.0 13.01 -133.9 0 -0.4 46.1 48.3 0 2431 0 0 0 61.7 55.8 0.0
2026 05/02 02:15 50.9 60.0 90.1 11.2 30.15 67.3 0.0 12.99 -133.9 0 -0.4 45.2 47.4 0 2431 0 0 0 61.3 55.7 0.0
2026 05/02 02:30 49.9 64.1 109.1 6.6 30.15 67.2 0.0 13.02 -134.0 0 -0.3 45.2 46.5 0 2431 0 0 0 60.9 55.5 0.0
2026 05/02 02:45 51.0 66.0 99.8 14.1 30.14 67.0 0.0 13.00 -134.1 0 -0.1 46.1 45.8 0 2431 0 0 0 60.5 55.2 0.0
2026 05/02 03:00 48.4 73.0 94.6 20.6 30.13 66.9 0.0 12.99 -134.3 0 -0.4 46.1 45.6 0 2431 0 0 0 60.1 55.0 0.0
2026 05/02 03:15 48.2 71.1 85.0 25.1 30.12 66.8 0.0 12.99 -134.4 0 -0.3 47.0 45.6 0 2431 0 0 0 59.7 54.9 0.0
2026 05/02 03:30 49.0 66.1 87.1 28.4 30.12 66.6 0.0 13.01 -134.4 0 -0.1 47.0 46.0 0 2431 0 0 0 59.2 54.7 0.0
2026 05/02 03:45 48.9 67.0 90.4 27.2 30.12 66.4 0.0 13.00 -134.5 0 0.1 47.0 46.1 0 2431 0 0 0 59.0 54.5 0.0
2026 05/02 04:00 48.9 66.1 81.0 28.4 30.11 66.3 0.0 12.99 -134.6 0 -0.1 47.0 46.8 0 2431 0 0 0 58.6 54.3 0.0
2026 05/02 04:15 48.7 66.2 78.3 28.4 30.11 66.2 0.0 12.99 -134.6 0 -0.1 47.9 47.7 0 2431 0 0 0 58.3 54.1 0.0
2026 05/02 04:30 48.5 66.0 85.9 28.7 30.10 66.1 0.0 13.00 -134.8 0 -0.2 47.9 48.4 0 2431 0 0 0 58.0 53.9 0.0
2026 05/02 04:45 49.8 67.0 92.1 29.5 30.10 66.0 0.0 12.99 -134.8 0 0.1 47.9 48.9 0 2431 0 0 0 57.8 53.8 0.0
2026 05/02 05:00 49.4 68.3 90.0 28.2 30.10 65.8 0.0 13.00 -134.9 0 -0.1 47.9 49.3 0 2431 0 0 0 57.6 53.7 0.0
2026 05/02 05:15 47.9 68.5 85.4 26.9 30.09 65.7 0.0 12.99 -134.9 0 -0.1 47.9 49.3 0 2431 0 0 0 57.3 53.4 0.0
2026 05/02 05:30 47.6 69.7 90.8 28.9 30.09 65.6 0.0 12.99 -134.9 0 -0.1 47.9 49.5 0 2431 0 0 0 57.0 53.3 0.0
2026 05/02 05:45 47.6 70.9 84.2 30.2 30.09 65.5 4.1 12.98 -135.0 0 -0.2 47.9 49.4 0 2431 0 0 0 56.8 53.2 0.0
2026 05/02 06:00 47.4 71.8 85.7 28.8 30.08 65.4 23.7 12.99 -135.0 0 0.0 47.0 49.4 0 2431 0 0 0 56.6 53.1 0.0
2026 05/02 06:15 47.3 71.7 86.4 30.0 30.09 65.3 81.1 12.99 -135.0 0 -0.2 47.9 49.6 0 2431 0 0 0 56.4 52.9 0.0
2026 05/02 06:30 47.3 71.4 88.5 30.0 30.09 65.3 162.1 12.98 -135.1 0 0.0 47.9 49.9 0 2431 0 0 0 56.2 52.8 0.0
2026 05/02 06:45 47.2 71.4 87.2 28.8 30.08 65.2 241.2 13.00 -135.1 0 0.0 47.9 50.3 0 2431 0 0 0 56.1 52.7 0.0
2026 05/02 07:00 47.0 72.0 89.3 31.4 30.09 65.1 277.8 12.98 -135.1 0 0.0 47.9 50.8 0 2431 0 0 0 56.0 52.7 0.0
2026 05/02 07:15 46.8 72.9 87.2 28.0 30.09 65.0 291.4 12.99 -135.1 0 -0.2 47.9 51.2 0 2431 0 0 0 56.2 52.5 0.0
2026 05/02 07:30 46.6 73.7 84.1 29.4 30.08 65.0 367.4 13.01 -135.3 0 -0.4 47.9 51.7 0 2431 0 0 0 56.2 52.4 0.0
2026 05/02 07:45 46.5 74.2 83.7 29.5 30.08 64.9 383.0 13.00 -135.3 0 -0.1 47.9 52.0 0 2431 0 0 0 56.4 52.4 0.0
2026 05/02 08:00 46.5 74.3 88.6 33.1 30.08 64.8 434.5 12.99 -135.3 0 -0.2 47.9 52.5 0 2431 0 0 0 56.5 52.4 0.0
2026 05/02 08:15 46.5 74.9 93.9 33.1 30.09 64.8 404.7 13.01 -135.3 0 -0.4 48.8 53.0 0 2431 0 0 0 56.5 52.4 0.0
2026 05/02 08:30 46.3 75.6 91.9 29.3 30.10 64.7 376.9 13.00 -135.4 0 -0.3 48.8 52.9 0 2431 0 0 0 56.7 52.4 0.0
2026 05/02 08:45 47.7 76.2 92.4 29.5 30.10 64.7 513.9 12.98 -135.4 0 -0.2 49.7 53.2 0 2431 0 0 0 56.9 52.4 0.0
2026 05/02 09:00 46.7 79.4 93.9 23.4 30.11 64.6 531.9 13.00 -135.4 0 -0.5 50.6 54.6 0 2431 0 0 0 57.2 52.7 0.0
2026 05/02 09:15 47.1 79.6 90.0 23.4 30.11 64.5 529.9 12.98 -135.4 0 -0.4 51.5 55.3 0 2431 0 0 0 57.6 53.0 0.0
2026 05/02 09:30 47.2 76.6 76.7 23.9 30.11 64.5 633.3 12.98 -135.5 0 0.2 51.5 56.2 0 2431 0 0 0 58.0 53.3 0.0
2026 05/02 09:45 47.4 73.5 90.6 27.3 30.11 64.3 603.8 12.99 -135.5 0 -0.6 52.4 57.1 0 2431 0 0 0 58.6 53.7 0.0
2026 05/02 10:00 48.3 71.8 89.8 27.1 30.11 64.3 657.1 13.00 -135.5 0 -0.4 54.2 58.0 0 2431 0 0 0 59.2 54.3 0.0
2026 05/02 10:15 48.0 76.4 84.9 26.5 30.11 64.3 674.7 12.99 -135.5 0 -0.1 54.2 57.9 0 2431 0 0 0 60.1 55.1 0.0
2026 05/02 10:30 49.0 70.3 92.9 29.4 30.11 64.3 652.3 13.01 -135.5 0 -0.3 54.2 58.3 0 2431 0 0 0 61.1 56.1 0.0
2026 05/02 10:45 50.1 68.0 79.2 27.8 30.11 64.2 640.1 13.00 -135.5 0 -0.3 55.1 58.8 0 2431 0 0 0 61.7 56.7 0.0
2026 05/02 11:00 51.5 69.1 98.1 28.0 30.11 64.1 631.3 12.98 -135.5 0 -0.4 56.0 60.3 0 2431 0 0 0 62.2 57.2 0.0
2026 05/02 11:15 50.4 67.7 85.6 32.0 30.11 64.1 684.5 13.00 -135.5 0 -0.4 56.9 61.2 0 2431 0 0 0 63.0 57.5 0.0
2026 05/02 11:30 50.7 66.0 94.3 28.8 30.12 64.2 605.5 12.98 -135.5 0 -0.5 56.9 61.3 0 2431 0 0 0 63.8 58.2 0.0
2026 05/02 11:45 51.2 63.9 108.2 23.1 30.12 64.2 752.0 13.00 -135.5 0 -0.4 57.8 62.5 0 2431 0 0 0 64.5 58.6 0.0
2026 05/02 12:00 52.0 60.6 98.5 25.4 30.12 64.2 743.0 12.98 -135.5 0 -0.5 57.8 63.8 0 2431 0 0 0 65.5 59.4 0.0
2026 05/02 12:15 52.5 60.6 108.9 23.5 30.12 64.2 754.0 12.99 -135.5 0 -0.1 58.7 64.0 0 2431 0 0 0 66.6 60.4 0.0
2026 05/02 12:30 53.1 58.4 95.6 24.2 30.12 64.3 750.0 12.98 -135.5 0 -0.6 59.6 65.9 0 2431 0 0 0 67.5 61.2 0.0
2026 05/02 12:45 53.9 56.5 81.2 23.1 30.12 64.3 746.0 13.01 -135.5 0 -0.3 60.5 66.0 0 2431 0 0 0 68.4 62.0 0.0
2026 05/02 13:00 54.6 56.0 99.3 22.6 30.12 64.3 725.0 13.00 -135.5 0 -0.9 62.3 66.5 0 2431 0 0 0 69.4 62.9 0.0
2026 05/02 13:15 55.0 55.4 71.1 19.4 30.12 64.2 697.4 13.01 -135.4 0 -0.3 61.4 66.8 0 2431 0 0 0 70.4 63.3 0.0
2026 05/02 13:30 55.6 52.2 91.2 25.3 30.12 64.3 702.0 13.00 -135.4 0 -0.7 62.3 67.5 0 2431 0 0 0 71.0 63.6 0.0
2026 05/02 13:45 56.0 48.0 94.6 21.2 30.12 64.3 624.5 12.99 -135.4 0 -0.3 61.4 67.0 0 2431 0 0 0 71.4 63.9 0.0
2026 05/02 14:00 56.4 46.1 87.5 19.6 30.12 64.5 727.0 13.00 -135.4 0 -0.4 61.4 66.9 0 2431 0 0 0 71.7 63.6 0.0
2026 05/02 14:15 57.5 44.1 55.0 19.8 30.11 64.5 708.0 12.99 -135.3 0 -1.7 62.3 68.8 0 2431 0 0 0 72.0 63.6 0.0
2026 05/02 14:30 57.7 43.6 90.8 22.0 30.12 64.6 744.0 13.01 -135.3 0 -0.7 63.2 71.0 0 2431 0 0 0 72.5 63.6 0.0
2026 05/02 14:45 59.9 45.0 77.6 11.2 30.12 64.7 737.0 13.01 -135.3 0 -0.6 64.1 70.0 0 2431 0 0 0 72.7 63.7 0.0
2026 05/02 15:00 57.9 40.5 84.3 22.5 30.12 64.7 580.1 12.99 -135.1 0 -0.8 62.3 69.3 0 2431 0 0 0 73.0 63.7 0.0
2026 05/02 15:15 57.9 40.2 52.8 22.0 30.11 64.8 696.7 12.99 -135.1 0 -0.5 63.2 69.4 0 2431 0 0 0 73.1 63.5 0.0
2026 05/02 15:30 58.1 39.3 43.4 21.1 30.11 64.9 629.6 13.01 -135.0 0 -0.5 63.2 70.4 0 2431 0 0 0 73.1 63.3 0.0
2026 05/02 15:45 58.8 41.0 41.4 17.6 30.11 65.0 703.0 12.99 -134.9 0 -1.6 64.1 71.4 0 2431 0 0 0 73.4 63.2 0.0
2026 05/02 16:00 58.1 41.6 53.3 20.1 30.11 65.1 615.7 13.00 -134.9 0 -0.8 62.3 70.3 0 2431 0 0 0 73.5 63.2 0.0
2026 05/02 16:15 57.8 43.1 84.5 17.6 30.11 65.3 541.4 12.98 -134.8 0 -0.5 61.4 69.3 0 2431 0 0 0 73.5 63.0 0.0
2026 05/02 16:30 57.9 44.0 80.9 20.5 30.11 65.4 367.4 12.99 -134.5 0 -0.5 60.5 66.8 0 2431 0 0 0 73.2 62.8 0.0
2026 05/02 16:45 57.6 43.4 95.0 20.7 30.14 65.5 186.6 13.01 -134.4 0 -0.3 59.6 65.4 0 2431 0 0 0 72.9 62.4 0.0
2026 05/02 17:00 54.4 51.7 196.4 4.9 30.14 65.7 91.6 13.01 -134.2 0 -0.5 53.3 60.1 0 2431 0 0 0 72.0 62.0 0.0
2026 05/02 17:15 49.6 71.6 193.6 42.1 30.15 65.8 151.6 12.99 -134.1 0 -0.1 51.5 58.4 0 2432 0 0 0 71.0 61.5 0.0
2026 05/02 17:30 48.9 74.4 167.7 31.8 30.16 65.9 176.0 12.99 -134.0 0 -0.1 50.6 56.9 0 2432 0 0 0 70.2 61.0 0.0
2026 05/02 17:45 51.2 60.9 160.8 25.9 30.16 66.0 114.0 12.99 -134.0 0 -0.2 53.3 56.7 0 2432 0 0 0 69.5 60.6 0.0
2026 05/02 18:00 53.3 50.6 16.4 15.9 30.13 66.1 201.5 13.00 -134.0 0 -0.1 51.5 57.8 0 2432 0 0 0 68.9 60.2 0.0
2026 05/02 18:15 53.4 51.8 5.8 18.8 30.14 66.1 296.8 12.99 -134.0 0 -0.2 53.3 58.7 0 2432 0 0 0 68.2 59.9 0.0
2026 05/02 18:30 52.8 55.0 5.5 13.4 30.14 66.3 321.9 13.01 -134.0 0 -0.5 53.3 58.0 0 2432 0 0 0 67.7 59.6 0.0
2026 05/02 18:45 52.9 56.7 19.9 12.0 30.15 66.3 301.6 12.99 -134.2 0 -0.2 53.3 57.9 0 2432 0 0 0 67.5 59.4 0.0
2026 05/02 19:00 53.5 53.5 27.0 12.9 30.14 66.4 267.6 13.01 -134.2 0 -0.4 53.3 57.8 0 2432 0 0 0 67.0 59.3 0.0
2026 05/02 19:15 53.5 53.0 39.3 15.1 30.14 66.4 237.8 12.99 -134.2 0 -0.4 53.3 56.8 0 2432 0 0 0 66.8 59.1 0.0
2026 05/02 19:30 53.0 55.6 45.3 20.2 30.13 66.4 221.5 13.01 -134.2 0 -0.4 53.3 56.4 0 2432 0 0 0 66.4 58.8 0.0
2026 05/02 19:45 52.3 58.8 73.5 23.5 30.14 66.4 164.5 12.99 -134.3 0 -0.3 52.4 56.7 0 2432 0 0 0 66.0 58.6 0.0
2026 05/02 20:00 51.8 60.6 75.9 23.5 30.14 66.4 58.3 12.99 -134.3 0 -0.3 52.4 56.4 0 2432 0 0 0 65.5 58.4 0.0
2026 05/02 20:15 52.2 57.3 58.1 23.9 30.14 66.4 14.6 12.99 -134.3 0 -0.4 52.4 56.0 0 2432 0 0 0 65.1 58.0 0.0
2026 05/02 20:30 52.2 56.0 81.3 21.5 30.15 66.3 1.4 13.01 -134.4 0 -0.4 52.4 55.7 0 2432 0 0 0 64.7 57.8 0.0
2026 05/02 20:45 52.9 51.3 80.1 24.9 30.16 66.3 0.0 13.01 -134.4 0 -0.2 52.4 55.7 0 2432 0 0 0 64.5 57.7 0.0
2026 05/02 21:00 53.3 50.0 82.3 23.1 30.17 66.3 0.0 13.01 -134.4 0 -0.3 52.4 55.2 0 2432 0 0 0 64.0 57.5 0.0
2026 05/02 21:15 52.4 54.0 72.9 24.0 30.17 66.3 0.0 12.99 -134.5 0 -0.3 51.5 54.3 0 2432 0 0 0 63.7 57.3 0.0
2026 05/02 21:30 54.0 46.4 89.8 29.1 30.17 66.2 0.0 13.00 -134.5 0 -0.4 52.4 54.6 0 2432 0 0 0 63.3 57.2 0.0
2026 05/02 21:45 53.5 48.3 83.5 26.2 30.17 66.2 0.0 13.00 -134.5 0 -0.4 52.4 54.4 0 2432 0 0 0 63.0 56.9 0.0
2026 05/02 22:00 53.5 48.4 83.7 22.1 30.18 66.2 0.0 12.99 -134.5 0 -0.1 52.4 54.0 0 2432 0 0 0 62.7 56.7 0.0
2026 05/02 22:15 53.2 50.4 88.4 18.4 30.17 66.1 0.0 12.99 -134.6 0 -0.1 52.4 52.9 0 2432 0 0 0 62.1 56.5 0.0
2026 05/02 22:30 53.2 50.5 74.5 18.7 30.17 66.1 0.0 13.01 -134.6 0 -0.1 52.4 51.6 0 2432 0 0 0 61.8 56.2 0.0
2026 05/02 22:45 53.8 49.1 91.9 19.8 30.18 66.0 0.0 12.98 -134.6 0 -0.3 53.3 51.0 0 2432 0 0 0 61.3 56.1 0.0
2026 05/02 23:00 54.5 45.7 78.1 22.4 30.18 66.0 0.0 12.99 -134.8 0 -0.2 53.3 50.5 0 2432 0 0 0 60.7 55.8 0.0
2026 05/02 23:15 54.5 44.8 83.7 21.6 30.17 65.8 0.0 12.99 -134.8 0 -0.2 54.2 49.9 0 2432 0 0 0 60.4 55.6 0.0
2026 05/02 23:30 54.1 45.9 76.3 22.7 30.17 65.8 0.0 12.98 -134.8 0 -0.3 53.3 50.7 0 2432 0 0 0 60.1 55.5 0.0
2026 05/02 23:45 54.1 45.7 86.7 20.6 30.17 65.7 0.0 13.01 -134.9 0 -0.4 53.3 50.8 0 2432 0 0 0 59.7 55.4 0.0
2026 05/03 00:00 54.1 46.0 100.5 23.2 30.17 65.6 0.0 13.01 -134.9 0 -0.4 54.2 51.5 0 2432 0 0 0 59.6 55.1 0.0
2026 05/03 00:15 54.4 45.0 100.7 23.8 30.17 65.5 0.0 13.00 -134.9 0 -0.2 53.3 52.9 0 2432 0 0 0 59.7 55.0 0.0
2026 05/03 00:30 55.1 43.6 91.9 29.9 30.16 65.5 0.0 13.00 -135.0 0 -0.3 53.3 52.2 0 2432 0 0 0 59.4 54.8 0.0
2026 05/03 00:45 54.3 44.8 88.5 28.5 30.16 65.4 0.0 13.00 -135.0 0 -0.3 52.4 51.2 0 2432 0 0 0 59.1 54.7 0.0
2026 05/03 01:00 55.4 46.1 88.1 26.1 30.15 65.3 0.0 13.01 -135.0 0 -0.1 51.5 49.7 0 2432 0 0 0 59.0 54.5 0.0
2026 05/03 01:15 53.4 47.0 80.6 23.9 30.15 65.3 0.0 13.00 -135.1 0 -0.3 51.5 48.5 0 2432 0 0 0 58.5 54.3 0.0
2026 05/03 01:30 53.7 45.1 77.6 25.4 30.15 65.2 0.0 12.99 -135.1 0 -0.2 51.5 47.9 0 2432 0 0 0 58.2 54.1 0.0
2026 05/03 01:45 53.7 44.0 82.7 24.0 30.14 65.1 0.0 12.99 -135.1 0 -0.3 51.5 48.0 0 2432 0 0 0 58.0 54.0 0.0
2026 05/03 02:00 54.1 42.7 88.5 25.8 30.14 65.0 0.0 13.00 -135.3 0 -0.4 52.4 47.8 0 2432 0 0 0 57.6 53.8 0.0
2026 05/03 02:15 53.2 45.6 94.3 25.4 30.14 65.0 0.0 13.01 -135.3 0 -0.5 51.5 50.3 0 2432 0 0 0 57.3 53.5 0.0
2026 05/03 02:30 52.6 46.8 78.2 27.4 30.14 64.9 0.0 12.99 -135.3 0 0.0 51.5 50.4 0 2432 0 0 0 57.0 53.4 0.0
2026 05/03 02:45 53.3 45.6 84.1 29.2 30.13 64.8 0.0 12.98 -135.3 0 -0.3 51.5 50.7 0 2432 0 0 0 56.9 53.3 0.0
2026 05/03 03:00 53.5 46.0 77.6 30.6 30.13 64.7 0.0 13.00 -135.4 0 -0.0 50.6 50.6 0 2432 0 0 0 56.8 53.1 0.0
2026 05/03 03:15 53.2 47.2 80.5 29.8 30.13 64.7 0.0 13.00 -135.4 0 -0.2 50.6 50.6 0 2432 0 0 0 56.6 53.0 0.0
2026 05/03 03:30 53.0 48.0 85.0 30.0 30.13 64.6 0.0 12.99 -135.4 0 0.1 50.6 50.6 0 2432 0 0 0 56.2 52.8 0.0
2026 05/03 03:45 52.4 51.0 82.6 28.7 30.13 64.6 0.0 13.00 -135.4 0 -0.4 50.6 50.8 0 2432 0 0 0 56.0 52.8 0.0
2026 05/03 04:00 52.8 50.1 83.6 28.5 30.13 64.5 0.0 12.98 -135.4 0 -0.4 50.6 50.5 0 2432 0 0 0 55.9 52.5 0.0
2026 05/03 04:15 52.4 52.0 76.5 26.4 30.13 64.5 0.0 13.00 -135.5 0 -0.1 50.6 50.5 0 2432 0 0 0 55.7 52.4 0.0
2026 05/03 04:30 52.3 53.4 59.9 27.3 30.12 64.4 0.0 13.01 -135.5 0 -0.1 50.6 50.5 0 2432 0 0 0 55.4 52.2 0.0
2026 05/03 04:45 51.7 54.5 78.6 26.9 30.12 64.4 0.0 12.99 -135.5 0 -0.2 50.6 50.4 0 2432 0 0 0 55.2 52.2 0.0
2026 05/03 05:00 52.2 54.1 68.4 29.3 30.12 64.3 0.0 12.99 -135.5 0 -0.4 50.6 50.4 0 2432 0 0 0 55.0 52.1 0.0
2026 05/03 05:15 51.5 55.5 76.2 28.8 30.12 64.3 0.0 12.99 -135.6 0 -0.4 50.6 50.1 0 2432 0 0 0 54.9 51.9 0.0
2026 05/03 05:30 51.8 55.6 71.2 28.6 30.12 64.2 1.4 13.00 -135.6 0 -0.5 49.7 49.4 0 2432 0 0 0 54.7 51.7 0.0
2026 05/03 05:45 51.8 57.1 71.3 28.0 30.12 64.1 15.6 12.99 -135.6 0 -0.3 49.7 49.8 0 2432 0 0 0 54.6 51.6 0.0
2026 05/03 06:00 51.7 57.4 66.4 26.0 30.12 64.1 79.4 13.01 -135.6 0 -0.3 51.5 50.7 0 2432 0 0 0 54.3 51.5 0.0
2026 05/03 06:15 52.2 54.9 99.4 28.1 30.12 64.0 201.5 13.00 -135.6 0 -0.3 52.4 51.9 0 2432 0 0 0 54.1 51.4 0.0
2026 05/03 06:30 52.8 52.2 64.0 30.7 30.12 64.0 294.8 13.00 -135.7 0 -0.7 52.4 51.7 0 2432 0 0 0 54.1 51.3 0.0
2026 05/03 06:45 52.5 51.7 74.4 29.6 30.12 63.9 355.9 12.98 -135.7 0 -0.5 52.4 51.6 0 2432 0 0 0 54.0 51.2 0.0
2026 05/03 07:00 52.5 52.2 79.2 26.6 30.12 63.9 425.1 12.98 -135.7 0 -0.5 53.3 52.3 0 2432 0 0 0 54.0 51.2 0.0
2026 05/03 07:15 52.5 53.9 71.0 28.0 30.12 63.8 466.5 12.99 -135.8 0 -0.6 54.2 53.3 0 2432 0 0 0 54.1 51.1 0.0
2026 05/03 07:30 52.3 55.3 75.6 24.5 30.13 63.7 495.6 13.00 -135.7 0 -0.5 55.1 54.2 0 2432 0 0 0 54.5 51.1 0.0
2026 05/03 07:45 52.7 55.1 70.0 26.8 30.13 63.7 519.4 12.98 -135.7 0 -0.5 56.0 54.9 0 2432 0 0 0 54.7 51.2 0.0
2026 05/03 08:00 52.9 54.9 75.8 27.8 30.13 63.8 537.7 12.98 -135.7 0 -0.7 56.9 55.8 0 2432 0 0 0 55.2 51.7 0.0
2026 05/03 08:15 52.9 55.5 93.5 25.3 30.13 63.7 554.3 13.01 -135.8 0 -0.4 56.9 56.8 0 2432 0 0 0 56.1 52.4 0.0
2026 05/03 08:30 52.9 55.5 99.1 24.8 30.13 63.7 572.7 12.98 -135.8 0 -0.4 57.8 57.6 0 2432 0 0 0 56.9 53.3 0.0
2026 05/03 08:45 53.2 56.0 88.1 24.5 30.13 63.7 596.4 12.98 -135.9 0 -0.7 59.6 58.3 0 2432 0 0 0 57.5 54.1 0.0
2026 05/03 09:00 55.0 55.2 77.9 26.8 30.13 63.7 617.4 13.01 -135.9 0 -0.6 60.5 59.2 0 2432 0 0 0 58.4 55.1 0.0
2026 05/03 09:15 54.0 54.4 69.6 23.1 30.13 63.7 637.5 13.00 -135.8 0 -1.0 59.6 60.0 0 2432 0 0 0 59.3 56.2 0.0
2026 05/03 09:30 55.6 53.7 72.8 25.3 30.13 63.6 654.4 13.01 -135.9 0 -0.4 59.6 60.5 0 2432 0 0 0 60.2 57.3 0.0
2026 05/03 09:45 54.6 53.1 98.7 25.3 30.13 63.6 669.7 13.00 -135.9 0 -0.3 59.6 60.9 0 2432 0 0 0 61.0 57.9 0.0
2026 05/03 10:00 56.1 53.7 71.8 20.4 30.14 63.6 682.9 12.99 -135.9 0 -0.4 60.5 61.9 0 2432 0 0 0 62.0 59.0 0.0
2026 05/03 10:15 55.9 52.5 91.5 22.1 30.14 63.7 694.8 12.98 -135.9 0 0.2 60.5 62.4 0 2432 0 0 0 63.2 60.1 0.0
2026 05/03 10:30 58.2 52.6 79.5 18.6 30.14 63.7 705.0 13.00 -135.9 0 -0.6 60.5 63.7 0 2432 0 0 0 64.5 61.1 0.0
2026 05/03 10:45 58.0 51.0 84.2 19.8 30.14 63.6 713.0 12.99 -135.9 0 -0.3 61.4 64.3 0 2432 0 0 0 65.4 61.7 0.0
2026 05/03 11:00 58.7 50.1 85.1 18.1 30.14 63.7 719.0 13.00 -135.9 0 -0.7 62.3 65.1 0 2432 0 0 0 66.6 62.4 0.0
2026 05/03 11:15 58.1 49.7 73.7 18.0 30.14 63.7 726.0 12.98 -135.8 0 0.0 63.2 66.0 0 2432 0 0 0 68.0 63.5 0.0
2026 05/03 11:30 57.8 49.4 61.3 19.1 30.14 63.7 731.0 12.99 -135.8 0 -0.9 63.2 66.8 0 2432 0 0 0 69.2 64.2 0.0
2026 05/03 11:45 58.8 48.5 106.0 15.1 30.14 63.8 736.0 12.98 -135.8 0 -0.4 65.9 67.7 0 2432 0 0 0 70.0 64.8 0.0
2026 05/03 12:00 59.2 47.0 88.4 16.1 30.14 63.8 739.0 13.00 -135.7 0 -0.3 65.0 68.4 0 2432 0 0 0 71.2 65.6 0.0
2026 05/03 12:15 59.7 44.4 96.1 14.4 30.14 63.9 740.0 13.01 -135.7 0 -0.7 65.9 69.1 0 2432 0 0 0 72.1 66.5 0.0
2026 05/03 12:30 60.6 42.1 74.4 16.1 30.13 63.9 741.0 13.02 -135.7 0 -0.5 65.9 70.2 0 2432 0 0 0 73.1 66.8 0.0
2026 05/03 12:45 60.4 39.2 78.2 12.9 30.13 64.0 739.0 13.01 -135.6 0 -0.5 65.9 71.7 0 2432 0 0 0 73.9 67.2 0.0
2026 05/03 13:00 61.2 38.3 114.4 13.2 30.13 64.0 734.0 12.99 -135.6 0 -0.2 67.7 72.0 0 2432 0 0 0 74.9 68.0 0.0
2026 05/03 13:15 61.2 35.3 66.4 12.4 30.13 64.1 728.0 13.01 -135.6 0 -0.7 71.3 72.6 0 2432 0 0 0 75.6 68.5 0.0
2026 05/03 13:30 62.6 34.7 30.5 7.9 30.13 64.2 725.0 13.02 -135.5 0 -1.3 70.4 73.7 0 2432 0 0 0 76.5 68.6 0.0
2026 05/03 13:45 62.8 32.4 100.1 14.7 30.12 64.3 732.0 13.01 -135.5 0 -1.1 69.5 74.2 0 2432 0 0 0 77.0 69.0 0.0
2026 05/03 14:00 65.0 32.6 149.9 16.0 30.12 64.4 746.0 12.99 -135.4 0 -0.9 70.4 75.8 0 2432 0 0 0 77.6 69.1 0.0
2026 05/03 14:15 65.0 37.3 85.5 8.6 30.11 64.6 758.0 13.00 -135.4 0 -0.7 70.4 75.9 0 2432 0 0 0 78.0 68.6 0.0
2026 05/03 14:30 64.2 34.4 67.2 12.7 30.11 64.7 765.0 13.01 -135.3 0 -0.5 68.6 76.7 0 2432 0 0 0 78.1 68.4 0.0
2026 05/03 14:45 63.1 35.6 29.3 7.7 30.11 64.8 518.0 13.00 -135.1 0 -1.0 72.2 77.3 0 2432 0 0 0 78.2 68.4 0.0
2026 05/03 15:00 63.7 36.4 95.1 9.7 30.11 65.0 661.1 13.01 -135.0 0 -0.3 68.6 76.7 0 2432 0 0 0 78.6 68.4 0.0
2026 05/03 15:15 63.7 34.9 61.0 6.6 30.11 65.2 754.0 13.02 -134.9 0 -0.7 70.4 78.0 0 2432 0 0 0 78.9 68.2 0.0
2026 05/03 15:30 63.8 34.2 73.1 13.3 30.11 65.4 752.0 12.99 -134.8 0 0.4 69.5 77.3 0 2432 0 0 0 79.0 67.8 0.0
2026 05/03 15:45 62.6 33.8 90.7 17.9 30.10 65.6 746.0 12.99 -134.6 0 -0.4 69.5 78.7 0 2432 0 0 0 78.9 67.7 0.0
2026 05/03 16:00 63.7 33.6 69.7 18.0 30.10 65.8 739.0 13.01 -134.4 0 -0.1 68.6 79.4 0 2432 0 0 0 78.9 67.5 0.0
2026 05/03 16:15 63.1 33.5 40.8 12.7 30.10 66.0 738.0 12.99 -134.1 0 -0.4 69.5 78.0 0 2432 0 0 0 79.2 67.2 0.0
2026 05/03 16:30 63.4 33.6 61.2 15.7 30.10 66.3 729.0 12.98 -134.0 0 -0.7 68.6 77.6 0 2432 0 0 0 79.5 66.9 0.0
2026 05/03 16:45 63.2 33.3 40.7 10.7 30.10 66.5 493.5 12.99 -133.8 0 -0.5 67.7 81.3 0 2432 0 0 0 79.8 66.8 0.0
2026 05/03 17:00 64.9 34.0 25.2 6.9 30.10 66.8 466.7 13.00 -133.4 0 -0.4 65.9 78.4 0 2432 0 0 0 80.2 66.5 0.0
2026 05/03 17:15 63.3 32.2 31.8 12.5 30.10 67.2 698.0 13.01 -133.2 0 -0.0 68.6 83.8 0 2432 0 0 0 80.3 66.3 0.0
2026 05/03 17:30 62.7 34.7 49.1 17.3 30.11 67.5 451.1 13.00 -132.9 0 -0.4 65.9 75.5 0 2432 0 0 0 80.3 65.9 0.0
2026 05/03 17:45 62.7 35.1 36.3 15.9 30.11 67.8 538.2 13.01 -132.7 0 -0.2 65.9 76.6 0 2432 0 0 0 80.2 65.7 0.0
2026 05/03 18:00 62.8 34.7 73.1 13.1 30.12 68.1 654.2 13.00 -132.4 0 -0.4 67.7 85.3 0 2432 0 0 0 80.0 65.5 0.0
2026 05/03 18:15 62.2 35.0 68.2 7.9 30.12 68.4 344.2 13.01 -132.1 0 -0.4 65.0 77.4 0 2432 0 0 0 79.5 65.3 0.0
2026 05/03 18:30 62.2 32.8 38.3 14.2 30.12 68.7 453.5 12.99 -131.8 0 -0.4 63.2 72.1 0 2432 0 0 0 78.9 64.9 0.0
2026 05/03 18:45 61.7 35.8 70.2 12.9 30.12 69.1 543.0 12.99 -131.4 0 -0.4 65.0 70.5 0 2432 0 0 0 78.3 64.7 0.0
2026 05/03 19:00 61.7 36.0 42.5 17.4 30.12 69.3 333.7 12.99 -131.2 0 -0.5 63.2 69.0 0 2432 0 0 0 77.9 64.4 0.0
2026 05/03 19:15 61.2 36.7 52.4 16.0 30.12 69.5 443.3 12.99 -131.0 0 -0.4 62.3 67.4 0 2432 0 0 0 77.1 64.0 0.0
2026 05/03 19:30 61.2 36.3 57.5 15.2 30.13 69.8 369.3 13.01 -130.6 0 -0.5 61.4 66.5 0 2432 0 0 0 76.5 63.7 0.0
2026 05/03 19:45 60.6 37.2 44.1 16.0 30.13 70.1 257.1 13.01 -130.4 0 -0.5 60.5 65.2 0 2432 0 0 0 76.0 63.5 0.0
2026 05/03 20:00 60.2 37.2 28.1 18.7 30.13 70.3 155.3 12.99 -130.0 0 -0.4 59.6 63.4 0 2432 0 0 0 75.3 63.1 0.0
2026 05/03 20:15 59.9 37.7 46.0 16.6 30.13 70.5 70.5 12.99 -129.7 0 -0.5 58.7 61.8 0 2432 0 0 0 74.6 62.8 0.0
2026 05/03 20:30 59.6 37.9 60.6 14.8 30.14 70.6 12.9 13.01 -129.6 0 -0.2 56.9 59.8 0 2432 0 0 0 73.8 62.5 0.0
2026 05/03 20:45 59.4 38.1 43.2 13.1 30.15 70.8 1.4 13.02 -129.5 0 -0.4 56.0 58.7 0 2432 0 0 0 73.1 62.2 0.0
2026 05/03 21:00 58.6 39.2 10.2 10.7 30.15 71.0 0.0 12.99 -129.4 0 -0.4 56.9 57.6 0 2432 0 0 0 72.2 61.9 0.0
2026 05/03 21:15 58.8 39.2 28.9 10.0 30.16 71.2 0.0 13.00 -129.3 0 0.2 57.8 56.5 0 2432 0 0 0 71.3 61.5 0.0
2026 05/03 21:30 58.5 39.8 24.3 10.0 30.16 71.2 0.0 13.00 -129.1 0 -0.5 56.9 56.0 0 2432 0 0 0 70.4 61.2 0.0
2026 05/03 21:45 58.5 40.1 47.0 12.0 30.16 71.2 0.0 12.99 -129.1 0 -0.9 56.0 55.2 0 2432 0 0 0 69.8 61.0 0.0
2026 05/03 22:00 58.6 39.9 34.1 10.6 30.16 71.4 0.0 13.01 -129.0 0 -0.4 56.0 53.8 0 2432 0 0 0 69.1 60.6 0.0
2026 05/03 22:15 58.6 39.5 33.0 10.9 30.17 71.4 0.0 13.02 -129.1 0 -0.7 56.0 52.6 0 2432 0 0 0 68.3 60.3 0.0
2026 05/03 22:30 58.6 40.0 26.9 6.4 30.17 71.4 0.0 13.03 -129.1 0 -0.6 56.0 52.3 0 2432 0 0 0 67.7 60.0 0.0
2026 05/03 22:45 58.8 39.3 41.1 7.2 30.17 71.4 0.0 13.00 -129.3 0 -0.5 55.1 51.9 0 2432 0 0 0 67.2 59.7 0.0
2026 05/03 23:00 58.5 38.7 55.1 8.9 30.17 71.4 0.0 13.02 -129.3 0 -0.2 55.1 50.7 0 2432 0 0 0 66.6 59.4 0.0
2026 05/03 23:15 58.2 38.9 51.4 7.8 30.17 71.3 0.0 13.01 -129.4 0 -0.6 55.1 49.8 0 2432 0 0 0 65.9 59.1 0.0
2026 05/03 23:30 58.0 39.4 31.5 6.6 30.16 71.2 0.0 13.01 -129.5 0 -0.2 54.2 49.2 0 2432 0 0 0 65.4 58.7 0.0
2026 05/03 23:45 58.2 39.9 6.3 6.6 30.17 71.2 0.0 13.03 -129.6 0 -0.5 55.1 48.7 0 2432 0 0 0 64.9 58.5 0.0
2026 05/04 00:00 58.0 41.0 313.5 4.5 30.16 71.2 0.0 13.01 -129.7 0 -0.4 55.1 47.9 0 2432 0 0 0 64.2 58.2 0.0
2026 05/04 00:15 57.5 54.4 313.1 5.4 30.16 71.0 0.0 13.02 -130.0 0 -0.2 55.1 47.5 0 2432 0 0 0 63.7 57.8 0.0
2026 05/04 00:30 57.2 51.7 319.3 6.1 30.16 71.0 0.0 12.99 -130.1 0 -1.0 55.1 47.1 0 2432 0 0 0 63.1 57.6 0.0
2026 05/04 00:45 57.1 53.7 321.6 8.7 30.16 70.8 0.0 13.01 -130.2 0 -0.6 55.1 46.7 0 2432 0 0 0 62.7 57.4 0.0
2026 05/04 01:00 56.7 59.5 318.8 10.1 30.15 70.8 0.0 13.02 -130.4 0 -0.6 55.1 46.0 0 2432 0 0 0 62.3 57.2 0.0
2026 05/04 01:15 56.3 60.6 313.7 6.8 30.15 70.7 0.0 13.01 -130.5 0 -0.4 54.2 45.6 0 2432 0 0 0 62.0 56.8 0.0
2026 05/04 01:30 56.2 59.1 326.4 7.7 30.15 70.6 0.0 13.01 -130.6 0 -0.3 54.2 45.3 0 2432 0 0 0 61.5 56.6 0.0
2026 05/04 01:45 56.3 58.7 336.2 9.1 30.14 70.5 0.0 12.99 -130.8 0 -1.1 54.2 45.0 0 2432 0 0 0 61.2 56.5 0.0
2026 05/04 02:00 57.2 51.7 17.7 13.9 30.14 70.4 0.0 13.01 -131.0 0 -0.6 53.3 44.4 0 2432 0 0 0 60.7 56.1 0.0
2026 05/04 02:15 56.5 55.0 347.9 10.6 30.14 70.3 0.0 13.03 -131.0 0 -0.4 54.2 44.2 0 2432 0 0 0 60.3 55.9 0.0
2026 05/04 02:30 56.8 50.5 23.2 11.7 30.14 70.1 0.0 13.00 -131.1 0 -0.7 54.2 44.0 0 2432 0 0 0 59.9 55.7 0.0
2026 05/04 02:45 56.9 46.8 14.8 8.6 30.13 70.1 0.0 13.01 -131.3 0 -0.5 54.2 44.3 0 2432 0 0 0 59.5 55.5 0.0
2026 05/04 03:00 57.2 45.9 354.5 10.1 30.13 69.9 0.0 13.01 -131.4 0 -0.5 54.2 43.6 0 2432 0 0 0 59.2 55.2 0.0
2026 05/04 03:15 57.5 43.3 357.3 15.3 30.12 69.8 0.0 13.01 -131.6 0 -0.2 54.2 43.3 0 2432 0 0 0 58.8 55.0 0.0
2026 05/04 03:30 57.7 42.6 5.1 13.4 30.12 69.7 0.0 13.00 -131.7 0 -0.3 54.2 43.2 0 2432 0 0 0 58.5 54.8 0.0
2026 05/04 03:45 57.1 44.6 358.2 10.5 30.12 69.6 0.0 12.99 -131.8 0 -0.5 54.2 42.9 0 2432 0 0 0 58.2 54.6 0.0
2026 05/04 04:00 57.1 45.4 350.7 10.6 30.11 69.5 0.0 12.99 -131.9 0 -0.4 53.3 42.4 0 2432 0 0 0 57.9 54.5 0.0
2026 05/04 04:15 54.3 62.8 313.2 8.7 30.11 69.3 0.0 13.00 -132.1 0 -0.5 52.4 42.4 0 2432 0 0 0 57.5 54.2 0.0
2026 05/04 04:30 54.3 59.6 320.4 9.1 30.11 69.3 0.0 13.00 -132.2 0 -0.4 52.4 42.0 0 2432 0 0 0 57.2 54.0 0.0
2026 05/04 04:45 55.1 56.4 336.5 13.5 30.10 69.1 0.0 13.01 -132.3 0 -0.5 52.4 41.7 0 2432 0 0 0 56.9 53.8 0.0
2026 05/04 05:00 55.1 57.5 339.9 14.8 30.10 69.0 0.0 12.99 -132.4 0 -0.5 52.4 41.3 0 2432 0 0 0 56.6 53.5 0.0
2026 05/04 05:15 54.6 61.0 330.6 12.4 30.10 68.9 0.0 12.99 -132.6 0 -1.2 52.4 41.2 0 2432 0 0 0 56.4 53.3 0.0
2026 05/04 05:30 52.8 69.2 323.6 14.1 30.10 68.7 1.4 13.00 -132.7 0 -0.8 51.5 41.3 0 2432 0 0 0 55.9 53.2 0.0
2026 05/04 05:45 53.5 63.8 339.7 15.1 30.10 68.7 20.4 12.99 -132.8 0 -0.3 51.5 44.9 0 2432 0 0 0 55.6 53.1 0.0
2026 05/04 06:00 53.0 68.3 335.9 12.4 30.10 68.4 103.4 12.99 -132.9 0 -0.4 51.5 43.5 0 2432 0 0 0 55.5 52.9 0.0
Where:
YYYY = Year
MM/DD = Month / Date
hh:mm = Hour : Minute
Temp = Temperature outside (F) @ 5720', on tower
Humid = Humidity outside (%) @ 5720'
W_dir = Wind direction / Azimuth (degrees) @ 5720'
W_spd = Wind speed (miles per hour) @ 5720'
Barom = Sea-level air pressure (inches of mercury)
T_int = Temperature (internal) (F) - inside barometer case
Light = Outside light level (no units) - 0 = dark, 1000 = bright
Power = Power supply rail (Volts)
Temp2 = Temperature (back-up) (F)
P2 = datalogger counter channel "P2" (to be static burst counter)
Snow = Snow depth, mid-mountain (inches) @ 5010'
T_mid = Temperature, mid-mountain (F) @ 5010'
T_base = Temperature @ south lodge (F) @ 4700'
Precip = Precipitation total (inches) @ 4800' (near US20 mp81)
Notes:
1999 07/17
Barometric data in this listing should have an additional
temperature correction applied to it, based on the sensor's
internal temperature:
P_corrected = Barom + (-0.0223 * T_int) + 0.8887 (inches Hg)
2004 07/03
The air pressure correction equation has not been checked
in a long time. The air pressure reading is best used only
to observe general trends.
2006 11/18
Added precipitation gauge. Depth is precipitation equivalent in water,
for the water year (beginning October 1st) at the Hogg Pass
SnoTel station.
2011 03/11
Fixed data column title bug from adding "T_base" after "T_mid".
If you notice a bug like this it will get fixed a whole lot sooner
if you tell me about it.